<?xml version="1.0" encoding="UTF-8" standalone="no" ?>
<gpx xmlns="http://www.topografix.com/GPX/1/1" xmlns:xsi="http://www.w3.org/2001/XMLSchema-instance" xsi:schemaLocation="http://www.topografix.com/GPX/1/1 http://www.topografix.com/GPX/1/1/gpx.xsd" version="1.1" creator="VisuGPX - https://www.visugpx.com">
  <metadata>
    <name>LarmoBaden_PontNeuf_12.8km</name>
    <desc><![CDATA[gnerando idor: 9701901 9847312]]></desc>
  </metadata>
  <trk>
    <name><![CDATA[LarmorBaden_PontNeuf_12.8km-9701901]]></name>
    <extensions>
      <line xmlns="http://www.topografix.com/GPX/gpx_style/0/2">
        <color>0000FF</color>
        <width>4</width>
      </line>
    </extensions>
    <trkseg>
      <trkpt lat="47.61569" lon="-2.86885">
        <ele>5</ele>
        <time>2023-10-29T17:56:54Z</time>
      </trkpt>
      <trkpt lat="47.61627" lon="-2.86707">
        <ele>6</ele>
        <time>2023-10-29T17:59:52Z</time>
      </trkpt>
      <trkpt lat="47.61673" lon="-2.86573">
        <ele>6</ele>
        <time>2023-10-29T18:02:07Z</time>
      </trkpt>
      <trkpt lat="47.61765" lon="-2.86418">
        <ele>9</ele>
        <time>2023-10-29T18:05:13Z</time>
      </trkpt>
      <trkpt lat="47.61855" lon="-2.86294">
        <ele>3</ele>
        <time>2023-10-29T18:07:57Z</time>
      </trkpt>
      <trkpt lat="47.61859" lon="-2.86045">
        <ele>9</ele>
        <time>2023-10-29T18:11:41Z</time>
      </trkpt>
      <trkpt lat="47.61822" lon="-2.859">
        <ele>7</ele>
        <time>2023-10-29T18:14:00Z</time>
      </trkpt>
      <trkpt lat="47.61687" lon="-2.85906">
        <ele>10</ele>
        <time>2023-10-29T18:17:01Z</time>
      </trkpt>
      <trkpt lat="47.61567" lon="-2.85793">
        <ele>4</ele>
        <time>2023-10-29T18:20:10Z</time>
      </trkpt>
      <trkpt lat="47.61477" lon="-2.85681">
        <ele>2</ele>
        <time>2023-10-29T18:22:47Z</time>
      </trkpt>
      <trkpt lat="47.61407" lon="-2.85721">
        <ele>5</ele>
        <time>2023-10-29T18:24:27Z</time>
      </trkpt>
      <trkpt lat="47.61344" lon="-2.85806">
        <ele>4</ele>
        <time>2023-10-29T18:26:21Z</time>
      </trkpt>
      <trkpt lat="47.61278" lon="-2.85945">
        <ele>3</ele>
        <time>2023-10-29T18:28:54Z</time>
      </trkpt>
      <trkpt lat="47.61215" lon="-2.86097">
        <ele>4</ele>
        <time>2023-10-29T18:31:34Z</time>
      </trkpt>
      <trkpt lat="47.61162" lon="-2.86227">
        <ele>6</ele>
        <time>2023-10-29T18:33:51Z</time>
      </trkpt>
      <trkpt lat="47.6109" lon="-2.86367">
        <ele>8</ele>
        <time>2023-10-29T18:36:29Z</time>
      </trkpt>
      <trkpt lat="47.61016" lon="-2.86497">
        <ele>6</ele>
        <time>2023-10-29T18:39:02Z</time>
      </trkpt>
      <trkpt lat="47.60957" lon="-2.86564">
        <ele>5</ele>
        <time>2023-10-29T18:40:42Z</time>
      </trkpt>
      <trkpt lat="47.60888" lon="-2.86661">
        <ele>5</ele>
        <time>2023-10-29T18:42:48Z</time>
      </trkpt>
      <trkpt lat="47.60818" lon="-2.86758">
        <ele>5</ele>
        <time>2023-10-29T18:44:56Z</time>
      </trkpt>
      <trkpt lat="47.60689" lon="-2.86825">
        <ele>3</ele>
        <time>2023-10-29T18:47:59Z</time>
      </trkpt>
      <trkpt lat="47.60505" lon="-2.86728">
        <ele>9</ele>
        <time>2023-10-29T18:52:19Z</time>
      </trkpt>
      <trkpt lat="47.60386" lon="-2.86513">
        <ele>9</ele>
        <time>2023-10-29T18:56:29Z</time>
      </trkpt>
      <trkpt lat="47.60309" lon="-2.86279">
        <ele>8</ele>
        <time>2023-10-29T19:00:24Z</time>
      </trkpt>
      <trkpt lat="47.60356" lon="-2.86115">
        <ele>2</ele>
        <time>2023-10-29T19:03:04Z</time>
      </trkpt>
      <trkpt lat="47.60284" lon="-2.86091">
        <ele>4</ele>
        <time>2023-10-29T19:04:43Z</time>
      </trkpt>
      <trkpt lat="47.60182" lon="-2.86209">
        <ele>8</ele>
        <time>2023-10-29T19:07:35Z</time>
      </trkpt>
      <trkpt lat="47.60063" lon="-2.86121">
        <ele>10</ele>
        <time>2023-10-29T19:10:33Z</time>
      </trkpt>
      <trkpt lat="47.59969" lon="-2.86179">
        <ele>11</ele>
        <time>2023-10-29T19:12:49Z</time>
      </trkpt>
      <trkpt lat="47.59858" lon="-2.86264">
        <ele>17</ele>
        <time>2023-10-29T19:15:35Z</time>
      </trkpt>
      <trkpt lat="47.5977" lon="-2.86291">
        <ele>14</ele>
        <time>2023-10-29T19:17:35Z</time>
      </trkpt>
      <trkpt lat="47.59715" lon="-2.86459">
        <ele>6</ele>
        <time>2023-10-29T19:20:23Z</time>
      </trkpt>
      <trkpt lat="47.59859" lon="-2.86883">
        <ele>6</ele>
        <time>2023-10-29T19:27:30Z</time>
      </trkpt>
      <trkpt lat="47.59894" lon="-2.87225">
        <ele>9</ele>
        <time>2023-10-29T19:32:42Z</time>
      </trkpt>
      <trkpt lat="47.59883" lon="-2.87408">
        <ele>5</ele>
        <time>2023-10-29T19:35:27Z</time>
      </trkpt>
      <trkpt lat="47.59914" lon="-2.8749">
        <ele>5</ele>
        <time>2023-10-29T19:36:52Z</time>
      </trkpt>
      <trkpt lat="47.60035" lon="-2.87408">
        <ele>9</ele>
        <time>2023-10-29T19:39:49Z</time>
      </trkpt>
      <trkpt lat="47.60189" lon="-2.875">
        <ele>13</ele>
        <time>2023-10-29T19:43:31Z</time>
      </trkpt>
      <trkpt lat="47.60245" lon="-2.87735">
        <ele>16</ele>
        <time>2023-10-29T19:47:15Z</time>
      </trkpt>
      <trkpt lat="47.60375" lon="-2.88046">
        <ele>18</ele>
        <time>2023-10-29T19:52:44Z</time>
      </trkpt>
      <trkpt lat="47.60441" lon="-2.88439">
        <ele>9</ele>
        <time>2023-10-29T19:58:49Z</time>
      </trkpt>
      <trkpt lat="47.6043" lon="-2.8873">
        <ele>6</ele>
        <time>2023-10-29T20:03:11Z</time>
      </trkpt>
      <trkpt lat="47.60337" lon="-2.88883">
        <ele>7</ele>
        <time>2023-10-29T20:06:16Z</time>
      </trkpt>
      <trkpt lat="47.60437" lon="-2.89103">
        <ele>18</ele>
        <time>2023-10-29T20:10:15Z</time>
      </trkpt>
      <trkpt lat="47.60568" lon="-2.89338">
        <ele>18</ele>
        <time>2023-10-29T20:14:49Z</time>
      </trkpt>
      <trkpt lat="47.60499" lon="-2.89669">
        <ele>19</ele>
        <time>2023-10-29T20:20:01Z</time>
      </trkpt>
      <trkpt lat="47.60052" lon="-2.89746">
        <ele>15</ele>
        <time>2023-10-29T20:30:02Z</time>
      </trkpt>
      <trkpt lat="47.59942" lon="-2.8946">
        <ele>17</ele>
        <time>2023-10-29T20:34:58Z</time>
      </trkpt>
      <trkpt lat="47.59807" lon="-2.89588">
        <ele>6</ele>
        <time>2023-10-29T20:38:32Z</time>
      </trkpt>
      <trkpt lat="47.59764" lon="-2.89464">
        <ele>6</ele>
        <time>2023-10-29T20:40:37Z</time>
      </trkpt>
      <trkpt lat="47.5967" lon="-2.89343">
        <ele>5</ele>
        <time>2023-10-29T20:43:23Z</time>
      </trkpt>
      <trkpt lat="47.59567" lon="-2.89225">
        <ele>6</ele>
        <time>2023-10-29T20:46:17Z</time>
      </trkpt>
      <trkpt lat="47.5965" lon="-2.89005">
        <ele>4</ele>
        <time>2023-10-29T20:50:04Z</time>
      </trkpt>
      <trkpt lat="47.59291" lon="-2.88924">
        <ele>17</ele>
        <time>2023-10-29T20:58:08Z</time>
      </trkpt>
      <trkpt lat="47.5912" lon="-2.88966">
        <ele>17</ele>
        <time>2023-10-29T21:02:00Z</time>
      </trkpt>
      <trkpt lat="47.58988" lon="-2.89011">
        <ele>14</ele>
        <time>2023-10-29T21:05:00Z</time>
      </trkpt>
      <trkpt lat="47.58876" lon="-2.89024">
        <ele>11</ele>
        <time>2023-10-29T21:07:30Z</time>
      </trkpt>
      <trkpt lat="47.58696" lon="-2.89054">
        <ele>9</ele>
        <time>2023-10-29T21:11:32Z</time>
      </trkpt>
      <trkpt lat="47.58557" lon="-2.89081">
        <ele>8</ele>
        <time>2023-10-29T21:14:39Z</time>
      </trkpt>
      <trkpt lat="47.58348" lon="-2.89051">
        <ele>10</ele>
        <time>2023-10-29T21:19:19Z</time>
      </trkpt>
      <trkpt lat="47.58178" lon="-2.89063">
        <ele>4</ele>
        <time>2023-10-29T21:23:06Z</time>
      </trkpt>
      <trkpt lat="47.58237" lon="-2.8957">
        <ele>1</ele>
        <time>2023-10-29T21:30:50Z</time>
      </trkpt>
      <trkpt lat="47.58238" lon="-2.89547">
        <ele>2</ele>
        <time>2023-10-29T21:31:10Z</time>
      </trkpt>
      <trkpt lat="47.58455" lon="-2.89537">
        <ele>6</ele>
        <time>2023-10-29T21:36:00Z</time>
      </trkpt>
      <trkpt lat="47.58582" lon="-2.89782">
        <ele>6</ele>
        <time>2023-10-29T21:40:38Z</time>
      </trkpt>
      <trkpt lat="47.58542" lon="-2.89913">
        <ele>4</ele>
        <time>2023-10-29T21:42:48Z</time>
      </trkpt>
      <trkpt lat="47.5844" lon="-2.90055">
        <ele>2</ele>
        <time>2023-10-29T21:45:54Z</time>
      </trkpt>
      <trkpt lat="47.58296" lon="-2.90261">
        <ele>5</ele>
        <time>2023-10-29T21:50:21Z</time>
      </trkpt>
      <trkpt lat="47.58197" lon="-2.90542">
        <ele>3</ele>
        <time>2023-10-29T21:55:07Z</time>
      </trkpt>
      <trkpt lat="47.58352" lon="-2.90624">
        <ele>11</ele>
        <time>2023-10-29T21:58:46Z</time>
      </trkpt>
      <trkpt lat="47.584" lon="-2.90828">
        <ele>2</ele>
        <time>2023-10-29T22:02:01Z</time>
      </trkpt>
      <trkpt lat="47.58544" lon="-2.90471">
        <ele>4</ele>
        <time>2023-10-29T22:08:15Z</time>
      </trkpt>
      <trkpt lat="47.58723" lon="-2.90358">
        <ele>2</ele>
        <time>2023-10-29T22:12:35Z</time>
      </trkpt>
    </trkseg>
  </trk>
  <trk>
    <name><![CDATA[bono - Baden-9847312]]></name>
    <extensions>
      <line xmlns="http://www.topografix.com/GPX/gpx_style/0/2">
        <color>00FF00</color>
        <width>4</width>
      </line>
    </extensions>
    <trkseg>
      <trkpt lat="47.66022" lon="-2.91771">
        <ele>6</ele>
        <time>2023-12-09T07:35:40Z</time>
      </trkpt>
      <trkpt lat="47.66034" lon="-2.91932">
        <ele>4</ele>
        <time>2023-12-09T07:38:06Z</time>
      </trkpt>
      <trkpt lat="47.66092" lon="-2.92084">
        <ele>3</ele>
        <time>2023-12-09T07:40:43Z</time>
      </trkpt>
      <trkpt lat="47.66149" lon="-2.92242">
        <ele>2</ele>
        <time>2023-12-09T07:43:24Z</time>
      </trkpt>
      <trkpt lat="47.66239" lon="-2.92333">
        <ele>1</ele>
        <time>2023-12-09T07:45:49Z</time>
      </trkpt>
      <trkpt lat="47.66349" lon="-2.92342">
        <ele>3</ele>
        <time>2023-12-09T07:48:16Z</time>
      </trkpt>
      <trkpt lat="47.66431" lon="-2.92466">
        <ele>1</ele>
        <time>2023-12-09T07:50:52Z</time>
      </trkpt>
      <trkpt lat="47.66533" lon="-2.92472">
        <ele>2</ele>
        <time>2023-12-09T07:53:08Z</time>
      </trkpt>
      <trkpt lat="47.66633" lon="-2.92421">
        <ele>9</ele>
        <time>2023-12-09T07:55:30Z</time>
      </trkpt>
      <trkpt lat="47.66721" lon="-2.92497">
        <ele>5</ele>
        <time>2023-12-09T07:57:45Z</time>
      </trkpt>
      <trkpt lat="47.66795" lon="-2.92463">
        <ele>8</ele>
        <time>2023-12-09T07:59:29Z</time>
      </trkpt>
      <trkpt lat="47.66791" lon="-2.92381">
        <ele>12</ele>
        <time>2023-12-09T08:00:43Z</time>
      </trkpt>
      <trkpt lat="47.66742" lon="-2.92278">
        <ele>17</ele>
        <time>2023-12-09T08:02:36Z</time>
      </trkpt>
      <trkpt lat="47.66711" lon="-2.9216">
        <ele>19</ele>
        <time>2023-12-09T08:04:30Z</time>
      </trkpt>
      <trkpt lat="47.66693" lon="-2.92054">
        <ele>17</ele>
        <time>2023-12-09T08:06:08Z</time>
      </trkpt>
      <trkpt lat="47.66733" lon="-2.91932">
        <ele>9</ele>
        <time>2023-12-09T08:08:10Z</time>
      </trkpt>
      <trkpt lat="47.66719" lon="-2.92011">
        <ele>10</ele>
        <time>2023-12-09T08:09:23Z</time>
      </trkpt>
      <trkpt lat="47.66713" lon="-2.92123">
        <ele>17</ele>
        <time>2023-12-09T08:11:04Z</time>
      </trkpt>
      <trkpt lat="47.66742" lon="-2.9223">
        <ele>16</ele>
        <time>2023-12-09T08:12:48Z</time>
      </trkpt>
      <trkpt lat="47.66766" lon="-2.92477">
        <ele>7</ele>
        <time>2023-12-09T08:16:32Z</time>
      </trkpt>
      <trkpt lat="47.66737" lon="-2.92494">
        <ele>6</ele>
        <time>2023-12-09T08:17:14Z</time>
      </trkpt>
      <trkpt lat="47.66714" lon="-2.92492">
        <ele>6</ele>
        <time>2023-12-09T08:17:45Z</time>
      </trkpt>
      <trkpt lat="47.66651" lon="-2.92441">
        <ele>8</ele>
        <time>2023-12-09T08:19:20Z</time>
      </trkpt>
      <trkpt lat="47.66623" lon="-2.92436">
        <ele>7</ele>
        <time>2023-12-09T08:19:58Z</time>
      </trkpt>
      <trkpt lat="47.66542" lon="-2.92475">
        <ele>2</ele>
        <time>2023-12-09T08:21:52Z</time>
      </trkpt>
      <trkpt lat="47.66443" lon="-2.92475">
        <ele>1</ele>
        <time>2023-12-09T08:24:04Z</time>
      </trkpt>
      <trkpt lat="47.66409" lon="-2.92444">
        <ele>1</ele>
        <time>2023-12-09T08:24:57Z</time>
      </trkpt>
      <trkpt lat="47.66355" lon="-2.92354">
        <ele>3</ele>
        <time>2023-12-09T08:26:45Z</time>
      </trkpt>
      <trkpt lat="47.66256" lon="-2.92341">
        <ele>1</ele>
        <time>2023-12-09T08:28:58Z</time>
      </trkpt>
      <trkpt lat="47.66193" lon="-2.92313">
        <ele>1</ele>
        <time>2023-12-09T08:30:26Z</time>
      </trkpt>
      <trkpt lat="47.66156" lon="-2.92259">
        <ele>2</ele>
        <time>2023-12-09T08:31:35Z</time>
      </trkpt>
      <trkpt lat="47.66128" lon="-2.92219">
        <ele>2</ele>
        <time>2023-12-09T08:32:27Z</time>
      </trkpt>
      <trkpt lat="47.66116" lon="-2.92171">
        <ele>3</ele>
        <time>2023-12-09T08:33:13Z</time>
      </trkpt>
      <trkpt lat="47.66108" lon="-2.92141">
        <ele>3</ele>
        <time>2023-12-09T08:33:42Z</time>
      </trkpt>
      <trkpt lat="47.66088" lon="-2.92096">
        <ele>3</ele>
        <time>2023-12-09T08:34:30Z</time>
      </trkpt>
      <trkpt lat="47.66076" lon="-2.92015">
        <ele>4</ele>
        <time>2023-12-09T08:35:45Z</time>
      </trkpt>
      <trkpt lat="47.66052" lon="-2.91966">
        <ele>4</ele>
        <time>2023-12-09T08:36:39Z</time>
      </trkpt>
      <trkpt lat="47.6603" lon="-2.91913">
        <ele>3</ele>
        <time>2023-12-09T08:37:35Z</time>
      </trkpt>
      <trkpt lat="47.66016" lon="-2.91829">
        <ele>4</ele>
        <time>2023-12-09T08:38:53Z</time>
      </trkpt>
      <trkpt lat="47.66031" lon="-2.91783">
        <ele>6</ele>
        <time>2023-12-09T08:39:39Z</time>
      </trkpt>
      <trkpt lat="47.66" lon="-2.91773">
        <ele>5</ele>
        <time>2023-12-09T08:40:21Z</time>
      </trkpt>
      <trkpt lat="47.66" lon="-2.91802">
        <ele>4</ele>
        <time>2023-12-09T08:40:47Z</time>
      </trkpt>
      <trkpt lat="47.6597" lon="-2.91832">
        <ele>3</ele>
        <time>2023-12-09T08:41:36Z</time>
      </trkpt>
      <trkpt lat="47.65938" lon="-2.91871">
        <ele>4</ele>
        <time>2023-12-09T08:42:31Z</time>
      </trkpt>
      <trkpt lat="47.65948" lon="-2.91926">
        <ele>5</ele>
        <time>2023-12-09T08:43:22Z</time>
      </trkpt>
      <trkpt lat="47.65975" lon="-2.92">
        <ele>6</ele>
        <time>2023-12-09T08:44:38Z</time>
      </trkpt>
      <trkpt lat="47.65985" lon="-2.92081">
        <ele>7</ele>
        <time>2023-12-09T08:45:52Z</time>
      </trkpt>
      <trkpt lat="47.65994" lon="-2.92146">
        <ele>7</ele>
        <time>2023-12-09T08:46:51Z</time>
      </trkpt>
      <trkpt lat="47.66021" lon="-2.92197">
        <ele>5</ele>
        <time>2023-12-09T08:47:50Z</time>
      </trkpt>
      <trkpt lat="47.66048" lon="-2.9227">
        <ele>2</ele>
        <time>2023-12-09T08:49:05Z</time>
      </trkpt>
      <trkpt lat="47.66003" lon="-2.92356">
        <ele>3</ele>
        <time>2023-12-09T08:50:42Z</time>
      </trkpt>
      <trkpt lat="47.65919" lon="-2.92383">
        <ele>5</ele>
        <time>2023-12-09T08:52:37Z</time>
      </trkpt>
      <trkpt lat="47.65879" lon="-2.92371">
        <ele>6</ele>
        <time>2023-12-09T08:53:32Z</time>
      </trkpt>
      <trkpt lat="47.65865" lon="-2.9233">
        <ele>7</ele>
        <time>2023-12-09T08:54:13Z</time>
      </trkpt>
      <trkpt lat="47.65855" lon="-2.92338">
        <ele>7</ele>
        <time>2023-12-09T08:54:28Z</time>
      </trkpt>
      <trkpt lat="47.65844" lon="-2.92399">
        <ele>7</ele>
        <time>2023-12-09T08:55:25Z</time>
      </trkpt>
      <trkpt lat="47.65808" lon="-2.9245">
        <ele>5</ele>
        <time>2023-12-09T08:56:31Z</time>
      </trkpt>
      <trkpt lat="47.65763" lon="-2.92474">
        <ele>4</ele>
        <time>2023-12-09T08:57:35Z</time>
      </trkpt>
      <trkpt lat="47.6571" lon="-2.92469">
        <ele>7</ele>
        <time>2023-12-09T08:58:46Z</time>
      </trkpt>
      <trkpt lat="47.65668" lon="-2.92461">
        <ele>10</ele>
        <time>2023-12-09T08:59:42Z</time>
      </trkpt>
      <trkpt lat="47.65668" lon="-2.92502">
        <ele>9</ele>
        <time>2023-12-09T09:00:19Z</time>
      </trkpt>
      <trkpt lat="47.65664" lon="-2.92551">
        <ele>6</ele>
        <time>2023-12-09T09:01:04Z</time>
      </trkpt>
      <trkpt lat="47.65635" lon="-2.92591">
        <ele>7</ele>
        <time>2023-12-09T09:01:56Z</time>
      </trkpt>
      <trkpt lat="47.65591" lon="-2.92618">
        <ele>8</ele>
        <time>2023-12-09T09:03:00Z</time>
      </trkpt>
      <trkpt lat="47.65541" lon="-2.92639">
        <ele>7</ele>
        <time>2023-12-09T09:04:09Z</time>
      </trkpt>
      <trkpt lat="47.65536" lon="-2.92662">
        <ele>4</ele>
        <time>2023-12-09T09:04:31Z</time>
      </trkpt>
      <trkpt lat="47.65484" lon="-2.9263">
        <ele>8</ele>
        <time>2023-12-09T09:05:46Z</time>
      </trkpt>
      <trkpt lat="47.65443" lon="-2.92621">
        <ele>6</ele>
        <time>2023-12-09T09:06:41Z</time>
      </trkpt>
      <trkpt lat="47.65422" lon="-2.92573">
        <ele>8</ele>
        <time>2023-12-09T09:07:33Z</time>
      </trkpt>
      <trkpt lat="47.65388" lon="-2.9254">
        <ele>7</ele>
        <time>2023-12-09T09:08:27Z</time>
      </trkpt>
      <trkpt lat="47.65354" lon="-2.9248">
        <ele>6</ele>
        <time>2023-12-09T09:09:38Z</time>
      </trkpt>
      <trkpt lat="47.65317" lon="-2.92456">
        <ele>5</ele>
        <time>2023-12-09T09:10:31Z</time>
      </trkpt>
      <trkpt lat="47.65278" lon="-2.92465">
        <ele>5</ele>
        <time>2023-12-09T09:11:24Z</time>
      </trkpt>
      <trkpt lat="47.65234" lon="-2.92491">
        <ele>4</ele>
        <time>2023-12-09T09:12:27Z</time>
      </trkpt>
      <trkpt lat="47.6519" lon="-2.92503">
        <ele>4</ele>
        <time>2023-12-09T09:13:27Z</time>
      </trkpt>
      <trkpt lat="47.65156" lon="-2.92497">
        <ele>6</ele>
        <time>2023-12-09T09:14:13Z</time>
      </trkpt>
      <trkpt lat="47.65132" lon="-2.92524">
        <ele>5</ele>
        <time>2023-12-09T09:14:53Z</time>
      </trkpt>
      <trkpt lat="47.65099" lon="-2.92546">
        <ele>4</ele>
        <time>2023-12-09T09:15:41Z</time>
      </trkpt>
      <trkpt lat="47.65063" lon="-2.92571">
        <ele>4</ele>
        <time>2023-12-09T09:16:34Z</time>
      </trkpt>
      <trkpt lat="47.65033" lon="-2.92607">
        <ele>4</ele>
        <time>2023-12-09T09:17:26Z</time>
      </trkpt>
      <trkpt lat="47.65006" lon="-2.92655">
        <ele>3</ele>
        <time>2023-12-09T09:18:22Z</time>
      </trkpt>
      <trkpt lat="47.64991" lon="-2.92706">
        <ele>3</ele>
        <time>2023-12-09T09:19:12Z</time>
      </trkpt>
      <trkpt lat="47.64982" lon="-2.92762">
        <ele>2</ele>
        <time>2023-12-09T09:20:04Z</time>
      </trkpt>
      <trkpt lat="47.64969" lon="-2.92819">
        <ele>2</ele>
        <time>2023-12-09T09:20:58Z</time>
      </trkpt>
      <trkpt lat="47.64957" lon="-2.92889">
        <ele>4</ele>
        <time>2023-12-09T09:22:03Z</time>
      </trkpt>
      <trkpt lat="47.64945" lon="-2.92984">
        <ele>3</ele>
        <time>2023-12-09T09:23:30Z</time>
      </trkpt>
      <trkpt lat="47.64992" lon="-2.93104">
        <ele>7</ele>
        <time>2023-12-09T09:25:34Z</time>
      </trkpt>
      <trkpt lat="47.65067" lon="-2.93135">
        <ele>7</ele>
        <time>2023-12-09T09:27:18Z</time>
      </trkpt>
      <trkpt lat="47.65138" lon="-2.93189">
        <ele>5</ele>
        <time>2023-12-09T09:29:05Z</time>
      </trkpt>
      <trkpt lat="47.6519" lon="-2.93303">
        <ele>2</ele>
        <time>2023-12-09T09:31:09Z</time>
      </trkpt>
      <trkpt lat="47.65153" lon="-2.93452">
        <ele>4</ele>
        <time>2023-12-09T09:33:31Z</time>
      </trkpt>
      <trkpt lat="47.6513" lon="-2.93548">
        <ele>7</ele>
        <time>2023-12-09T09:35:03Z</time>
      </trkpt>
      <trkpt lat="47.65086" lon="-2.93663">
        <ele>5</ele>
        <time>2023-12-09T09:37:02Z</time>
      </trkpt>
      <trkpt lat="47.65098" lon="-2.93732">
        <ele>8</ele>
        <time>2023-12-09T09:38:06Z</time>
      </trkpt>
      <trkpt lat="47.65136" lon="-2.93846">
        <ele>5</ele>
        <time>2023-12-09T09:40:00Z</time>
      </trkpt>
      <trkpt lat="47.65113" lon="-2.93936">
        <ele>6</ele>
        <time>2023-12-09T09:41:27Z</time>
      </trkpt>
      <trkpt lat="47.65091" lon="-2.94019">
        <ele>6</ele>
        <time>2023-12-09T09:42:47Z</time>
      </trkpt>
      <trkpt lat="47.65051" lon="-2.94088">
        <ele>6</ele>
        <time>2023-12-09T09:44:09Z</time>
      </trkpt>
      <trkpt lat="47.65006" lon="-2.9417">
        <ele>5</ele>
        <time>2023-12-09T09:45:44Z</time>
      </trkpt>
      <trkpt lat="47.64968" lon="-2.94199">
        <ele>6</ele>
        <time>2023-12-09T09:46:41Z</time>
      </trkpt>
      <trkpt lat="47.64961" lon="-2.9423">
        <ele>5</ele>
        <time>2023-12-09T09:47:10Z</time>
      </trkpt>
      <trkpt lat="47.64902" lon="-2.94328">
        <ele>5</ele>
        <time>2023-12-09T09:49:08Z</time>
      </trkpt>
      <trkpt lat="47.64869" lon="-2.94414">
        <ele>5</ele>
        <time>2023-12-09T09:50:37Z</time>
      </trkpt>
      <trkpt lat="47.64847" lon="-2.94412">
        <ele>6</ele>
        <time>2023-12-09T09:51:07Z</time>
      </trkpt>
      <trkpt lat="47.6482" lon="-2.94434">
        <ele>8</ele>
        <time>2023-12-09T09:51:48Z</time>
      </trkpt>
      <trkpt lat="47.64833" lon="-2.94452">
        <ele>6</ele>
        <time>2023-12-09T09:52:12Z</time>
      </trkpt>
      <trkpt lat="47.64818" lon="-2.94535">
        <ele>7</ele>
        <time>2023-12-09T09:53:29Z</time>
      </trkpt>
      <trkpt lat="47.64798" lon="-2.94629">
        <ele>11</ele>
        <time>2023-12-09T09:54:57Z</time>
      </trkpt>
      <trkpt lat="47.64789" lon="-2.94711">
        <ele>11</ele>
        <time>2023-12-09T09:56:12Z</time>
      </trkpt>
      <trkpt lat="47.64768" lon="-2.94779">
        <ele>10</ele>
        <time>2023-12-09T09:57:19Z</time>
      </trkpt>
      <trkpt lat="47.64735" lon="-2.94836">
        <ele>8</ele>
        <time>2023-12-09T09:58:27Z</time>
      </trkpt>
      <trkpt lat="47.64698" lon="-2.94909">
        <ele>7</ele>
        <time>2023-12-09T09:59:49Z</time>
      </trkpt>
      <trkpt lat="47.64666" lon="-2.94954">
        <ele>5</ele>
        <time>2023-12-09T10:00:48Z</time>
      </trkpt>
      <trkpt lat="47.64598" lon="-2.94944">
        <ele>8</ele>
        <time>2023-12-09T10:02:19Z</time>
      </trkpt>
      <trkpt lat="47.64533" lon="-2.94971">
        <ele>10</ele>
        <time>2023-12-09T10:03:49Z</time>
      </trkpt>
      <trkpt lat="47.64493" lon="-2.94998">
        <ele>10</ele>
        <time>2023-12-09T10:04:48Z</time>
      </trkpt>
      <trkpt lat="47.64425" lon="-2.95086">
        <ele>10</ele>
        <time>2023-12-09T10:06:48Z</time>
      </trkpt>
      <trkpt lat="47.64327" lon="-2.95217">
        <ele>10</ele>
        <time>2023-12-09T10:09:44Z</time>
      </trkpt>
      <trkpt lat="47.64286" lon="-2.95254">
        <ele>9</ele>
        <time>2023-12-09T10:10:48Z</time>
      </trkpt>
      <trkpt lat="47.64251" lon="-2.95296">
        <ele>8</ele>
        <time>2023-12-09T10:11:48Z</time>
      </trkpt>
      <trkpt lat="47.64199" lon="-2.95315">
        <ele>5</ele>
        <time>2023-12-09T10:13:00Z</time>
      </trkpt>
      <trkpt lat="47.64142" lon="-2.95303">
        <ele>6</ele>
        <time>2023-12-09T10:14:17Z</time>
      </trkpt>
      <trkpt lat="47.64096" lon="-2.95299">
        <ele>4</ele>
        <time>2023-12-09T10:15:18Z</time>
      </trkpt>
      <trkpt lat="47.64074" lon="-2.95429">
        <ele>13</ele>
        <time>2023-12-09T10:17:19Z</time>
      </trkpt>
      <trkpt lat="47.64201" lon="-2.95456">
        <ele>22</ele>
        <time>2023-12-09T10:20:10Z</time>
      </trkpt>
      <trkpt lat="47.64361" lon="-2.95347">
        <ele>12</ele>
        <time>2023-12-09T10:24:05Z</time>
      </trkpt>
      <trkpt lat="47.64404" lon="-2.95365">
        <ele>13</ele>
        <time>2023-12-09T10:25:04Z</time>
      </trkpt>
      <trkpt lat="47.64422" lon="-2.95443">
        <ele>13</ele>
        <time>2023-12-09T10:26:18Z</time>
      </trkpt>
      <trkpt lat="47.64399" lon="-2.95527">
        <ele>13</ele>
        <time>2023-12-09T10:27:40Z</time>
      </trkpt>
      <trkpt lat="47.64436" lon="-2.9557">
        <ele>6</ele>
        <time>2023-12-09T10:28:43Z</time>
      </trkpt>
      <trkpt lat="47.6446" lon="-2.95534">
        <ele>6</ele>
        <time>2023-12-09T10:29:28Z</time>
      </trkpt>
      <trkpt lat="47.64533" lon="-2.95621">
        <ele>5</ele>
        <time>2023-12-09T10:31:33Z</time>
      </trkpt>
      <trkpt lat="47.64593" lon="-2.95652">
        <ele>5</ele>
        <time>2023-12-09T10:32:58Z</time>
      </trkpt>
      <trkpt lat="47.64632" lon="-2.95758">
        <ele>6</ele>
        <time>2023-12-09T10:34:47Z</time>
      </trkpt>
      <trkpt lat="47.64678" lon="-2.95819">
        <ele>10</ele>
        <time>2023-12-09T10:36:09Z</time>
      </trkpt>
      <trkpt lat="47.64723" lon="-2.95767">
        <ele>11</ele>
        <time>2023-12-09T10:37:25Z</time>
      </trkpt>
      <trkpt lat="47.64754" lon="-2.95708">
        <ele>10</ele>
        <time>2023-12-09T10:38:32Z</time>
      </trkpt>
      <trkpt lat="47.64751" lon="-2.9563">
        <ele>8</ele>
        <time>2023-12-09T10:39:42Z</time>
      </trkpt>
      <trkpt lat="47.64697" lon="-2.95571">
        <ele>4</ele>
        <time>2023-12-09T10:41:12Z</time>
      </trkpt>
      <trkpt lat="47.64693" lon="-2.95496">
        <ele>5</ele>
        <time>2023-12-09T10:42:20Z</time>
      </trkpt>
      <trkpt lat="47.64711" lon="-2.95395">
        <ele>6</ele>
        <time>2023-12-09T10:43:53Z</time>
      </trkpt>
      <trkpt lat="47.6472" lon="-2.95252">
        <ele>6</ele>
        <time>2023-12-09T10:46:03Z</time>
      </trkpt>
      <trkpt lat="47.64758" lon="-2.95144">
        <ele>9</ele>
        <time>2023-12-09T10:47:52Z</time>
      </trkpt>
      <trkpt lat="47.64744" lon="-2.95075">
        <ele>7</ele>
        <time>2023-12-09T10:48:57Z</time>
      </trkpt>
      <trkpt lat="47.64764" lon="-2.94993">
        <ele>6</ele>
        <time>2023-12-09T10:50:15Z</time>
      </trkpt>
      <trkpt lat="47.648" lon="-2.94963">
        <ele>7</ele>
        <time>2023-12-09T10:51:10Z</time>
      </trkpt>
      <trkpt lat="47.64817" lon="-2.94877">
        <ele>6</ele>
        <time>2023-12-09T10:52:31Z</time>
      </trkpt>
      <trkpt lat="47.6485" lon="-2.94788">
        <ele>6</ele>
        <time>2023-12-09T10:54:02Z</time>
      </trkpt>
      <trkpt lat="47.64872" lon="-2.9471">
        <ele>6</ele>
        <time>2023-12-09T10:55:18Z</time>
      </trkpt>
      <trkpt lat="47.64893" lon="-2.94665">
        <ele>6</ele>
        <time>2023-12-09T10:56:08Z</time>
      </trkpt>
      <trkpt lat="47.64895" lon="-2.946">
        <ele>4</ele>
        <time>2023-12-09T10:57:06Z</time>
      </trkpt>
      <trkpt lat="47.64944" lon="-2.94504">
        <ele>3</ele>
        <time>2023-12-09T10:58:54Z</time>
      </trkpt>
      <trkpt lat="47.64986" lon="-2.94515">
        <ele>6</ele>
        <time>2023-12-09T10:59:51Z</time>
      </trkpt>
      <trkpt lat="47.6501" lon="-2.94556">
        <ele>8</ele>
        <time>2023-12-09T11:00:40Z</time>
      </trkpt>
      <trkpt lat="47.65028" lon="-2.94521">
        <ele>9</ele>
        <time>2023-12-09T11:01:20Z</time>
      </trkpt>
      <trkpt lat="47.6501" lon="-2.94468">
        <ele>6</ele>
        <time>2023-12-09T11:02:13Z</time>
      </trkpt>
      <trkpt lat="47.65011" lon="-2.9442">
        <ele>5</ele>
        <time>2023-12-09T11:02:56Z</time>
      </trkpt>
      <trkpt lat="47.65034" lon="-2.94404">
        <ele>7</ele>
        <time>2023-12-09T11:03:30Z</time>
      </trkpt>
      <trkpt lat="47.65045" lon="-2.94313">
        <ele>4</ele>
        <time>2023-12-09T11:04:53Z</time>
      </trkpt>
      <trkpt lat="47.65095" lon="-2.94245">
        <ele>5</ele>
        <time>2023-12-09T11:06:24Z</time>
      </trkpt>
      <trkpt lat="47.65151" lon="-2.94164">
        <ele>5</ele>
        <time>2023-12-09T11:08:08Z</time>
      </trkpt>
      <trkpt lat="47.65182" lon="-2.94096">
        <ele>5</ele>
        <time>2023-12-09T11:09:22Z</time>
      </trkpt>
      <trkpt lat="47.65216" lon="-2.94005">
        <ele>4</ele>
        <time>2023-12-09T11:10:55Z</time>
      </trkpt>
      <trkpt lat="47.65271" lon="-2.93902">
        <ele>2</ele>
        <time>2023-12-09T11:12:54Z</time>
      </trkpt>
      <trkpt lat="47.65299" lon="-2.93842">
        <ele>2.2</ele>
        <time>2023-12-09T11:13:59Z</time>
      </trkpt>
      <trkpt lat="47.65354" lon="-2.94064">
        <ele>5</ele>
        <time>2023-12-09T11:17:32Z</time>
      </trkpt>
      <trkpt lat="47.65351" lon="-2.94217">
        <ele>7</ele>
        <time>2023-12-09T11:19:49Z</time>
      </trkpt>
      <trkpt lat="47.65355" lon="-2.94299">
        <ele>9</ele>
        <time>2023-12-09T11:21:03Z</time>
      </trkpt>
      <trkpt lat="47.65208" lon="-2.94409">
        <ele>17</ele>
        <time>2023-12-09T11:24:43Z</time>
      </trkpt>
      <trkpt lat="47.65164" lon="-2.94426">
        <ele>17</ele>
        <time>2023-12-09T11:25:44Z</time>
      </trkpt>
      <trkpt lat="47.65134" lon="-2.94525">
        <ele>15</ele>
        <time>2023-12-09T11:27:21Z</time>
      </trkpt>
      <trkpt lat="47.65117" lon="-2.94511">
        <ele>15</ele>
        <time>2023-12-09T11:27:47Z</time>
      </trkpt>
      <trkpt lat="47.65109" lon="-2.94559">
        <ele>14</ele>
        <time>2023-12-09T11:28:32Z</time>
      </trkpt>
      <trkpt lat="47.65114" lon="-2.94594">
        <ele>14</ele>
        <time>2023-12-09T11:29:04Z</time>
      </trkpt>
      <trkpt lat="47.65073" lon="-2.94649">
        <ele>12</ele>
        <time>2023-12-09T11:30:18Z</time>
      </trkpt>
      <trkpt lat="47.65048" lon="-2.94727">
        <ele>15</ele>
        <time>2023-12-09T11:31:35Z</time>
      </trkpt>
      <trkpt lat="47.65033" lon="-2.94758">
        <ele>16</ele>
        <time>2023-12-09T11:32:09Z</time>
      </trkpt>
      <trkpt lat="47.65017" lon="-2.94801">
        <ele>18</ele>
        <time>2023-12-09T11:32:54Z</time>
      </trkpt>
      <trkpt lat="47.65013" lon="-2.94839">
        <ele>20</ele>
        <time>2023-12-09T11:33:28Z</time>
      </trkpt>
      <trkpt lat="47.65016" lon="-2.94874">
        <ele>19</ele>
        <time>2023-12-09T11:34:00Z</time>
      </trkpt>
      <trkpt lat="47.6493" lon="-2.9513">
        <ele>18</ele>
        <time>2023-12-09T11:38:17Z</time>
      </trkpt>
      <trkpt lat="47.6483" lon="-2.95099">
        <ele>12</ele>
        <time>2023-12-09T11:40:33Z</time>
      </trkpt>
      <trkpt lat="47.64814" lon="-2.95077">
        <ele>11</ele>
        <time>2023-12-09T11:41:03Z</time>
      </trkpt>
      <trkpt lat="47.64782" lon="-2.95071">
        <ele>9</ele>
        <time>2023-12-09T11:41:46Z</time>
      </trkpt>
      <trkpt lat="47.64752" lon="-2.95076">
        <ele>8</ele>
        <time>2023-12-09T11:42:26Z</time>
      </trkpt>
      <trkpt lat="47.64765" lon="-2.95133">
        <ele>9</ele>
        <time>2023-12-09T11:43:20Z</time>
      </trkpt>
      <trkpt lat="47.6473" lon="-2.95236">
        <ele>6</ele>
        <time>2023-12-09T11:45:04Z</time>
      </trkpt>
      <trkpt lat="47.64725" lon="-2.95329">
        <ele>8</ele>
        <time>2023-12-09T11:46:28Z</time>
      </trkpt>
      <trkpt lat="47.64718" lon="-2.95405">
        <ele>7</ele>
        <time>2023-12-09T11:47:36Z</time>
      </trkpt>
      <trkpt lat="47.64702" lon="-2.95461">
        <ele>6</ele>
        <time>2023-12-09T11:48:31Z</time>
      </trkpt>
      <trkpt lat="47.64701" lon="-2.95559">
        <ele>5</ele>
        <time>2023-12-09T11:49:59Z</time>
      </trkpt>
      <trkpt lat="47.64748" lon="-2.95618">
        <ele>7</ele>
        <time>2023-12-09T11:51:21Z</time>
      </trkpt>
      <trkpt lat="47.64758" lon="-2.95695">
        <ele>10</ele>
        <time>2023-12-09T11:52:32Z</time>
      </trkpt>
      <trkpt lat="47.64733" lon="-2.95757">
        <ele>11</ele>
        <time>2023-12-09T11:53:37Z</time>
      </trkpt>
      <trkpt lat="47.64688" lon="-2.95817">
        <ele>11</ele>
        <time>2023-12-09T11:54:58Z</time>
      </trkpt>
      <trkpt lat="47.64666" lon="-2.95807">
        <ele>8</ele>
        <time>2023-12-09T11:55:28Z</time>
      </trkpt>
      <trkpt lat="47.64637" lon="-2.95768">
        <ele>6</ele>
        <time>2023-12-09T11:56:21Z</time>
      </trkpt>
      <trkpt lat="47.64625" lon="-2.95741">
        <ele>6</ele>
        <time>2023-12-09T11:56:50Z</time>
      </trkpt>
      <trkpt lat="47.64596" lon="-2.95671">
        <ele>5</ele>
        <time>2023-12-09T11:58:03Z</time>
      </trkpt>
      <trkpt lat="47.64569" lon="-2.95639">
        <ele>5</ele>
        <time>2023-12-09T11:58:50Z</time>
      </trkpt>
      <trkpt lat="47.64512" lon="-2.95593">
        <ele>5</ele>
        <time>2023-12-09T12:00:16Z</time>
      </trkpt>
      <trkpt lat="47.64466" lon="-2.95547">
        <ele>6</ele>
        <time>2023-12-09T12:01:30Z</time>
      </trkpt>
      <trkpt lat="47.64439" lon="-2.9556">
        <ele>7</ele>
        <time>2023-12-09T12:02:08Z</time>
      </trkpt>
      <trkpt lat="47.64416" lon="-2.95452">
        <ele>13</ele>
        <time>2023-12-09T12:03:50Z</time>
      </trkpt>
      <trkpt lat="47.64406" lon="-2.95381">
        <ele>13</ele>
        <time>2023-12-09T12:04:55Z</time>
      </trkpt>
      <trkpt lat="47.64373" lon="-2.95349">
        <ele>12</ele>
        <time>2023-12-09T12:05:48Z</time>
      </trkpt>
      <trkpt lat="47.64212" lon="-2.95454">
        <ele>22</ele>
        <time>2023-12-09T12:09:42Z</time>
      </trkpt>
      <trkpt lat="47.64083" lon="-2.95432">
        <ele>14</ele>
        <time>2023-12-09T12:12:36Z</time>
      </trkpt>
      <trkpt lat="47.6409" lon="-2.95294">
        <ele>4</ele>
        <time>2023-12-09T12:14:40Z</time>
      </trkpt>
      <trkpt lat="47.64074" lon="-2.95296">
        <ele>4</ele>
        <time>2023-12-09T12:15:02Z</time>
      </trkpt>
      <trkpt lat="47.64068" lon="-2.95244">
        <ele>8</ele>
        <time>2023-12-09T12:15:49Z</time>
      </trkpt>
      <trkpt lat="47.64068" lon="-2.95121">
        <ele>12</ele>
        <time>2023-12-09T12:17:40Z</time>
      </trkpt>
      <trkpt lat="47.64055" lon="-2.95118">
        <ele>13</ele>
        <time>2023-12-09T12:17:57Z</time>
      </trkpt>
      <trkpt lat="47.64016" lon="-2.95268">
        <ele>8</ele>
        <time>2023-12-09T12:20:22Z</time>
      </trkpt>
      <trkpt lat="47.63964" lon="-2.95298">
        <ele>12</ele>
        <time>2023-12-09T12:21:36Z</time>
      </trkpt>
      <trkpt lat="47.6393" lon="-2.95321">
        <ele>14</ele>
        <time>2023-12-09T12:22:26Z</time>
      </trkpt>
      <trkpt lat="47.63907" lon="-2.95373">
        <ele>12</ele>
        <time>2023-12-09T12:23:22Z</time>
      </trkpt>
      <trkpt lat="47.63891" lon="-2.95421">
        <ele>10</ele>
        <time>2023-12-09T12:24:10Z</time>
      </trkpt>
      <trkpt lat="47.63865" lon="-2.95492">
        <ele>11</ele>
        <time>2023-12-09T12:25:23Z</time>
      </trkpt>
      <trkpt lat="47.6378" lon="-2.95714">
        <ele>9</ele>
        <time>2023-12-09T12:29:12Z</time>
      </trkpt>
      <trkpt lat="47.63753" lon="-2.95758">
        <ele>8</ele>
        <time>2023-12-09T12:30:06Z</time>
      </trkpt>
      <trkpt lat="47.63741" lon="-2.95739">
        <ele>11</ele>
        <time>2023-12-09T12:30:29Z</time>
      </trkpt>
      <trkpt lat="47.63615" lon="-2.95781">
        <ele>21</ele>
        <time>2023-12-09T12:33:22Z</time>
      </trkpt>
      <trkpt lat="47.63628" lon="-2.95515">
        <ele>25</ele>
        <time>2023-12-09T12:37:21Z</time>
      </trkpt>
      <trkpt lat="47.63401" lon="-2.95745">
        <ele>21</ele>
        <time>2023-12-09T12:43:28Z</time>
      </trkpt>
      <trkpt lat="47.6331" lon="-2.95757">
        <ele>17</ele>
        <time>2023-12-09T12:45:30Z</time>
      </trkpt>
      <trkpt lat="47.63264" lon="-2.95728">
        <ele>12</ele>
        <time>2023-12-09T12:46:37Z</time>
      </trkpt>
      <trkpt lat="47.63164" lon="-2.95745">
        <ele>9</ele>
        <time>2023-12-09T12:48:51Z</time>
      </trkpt>
      <trkpt lat="47.63084" lon="-2.95768">
        <ele>13</ele>
        <time>2023-12-09T12:50:40Z</time>
      </trkpt>
      <trkpt lat="47.63045" lon="-2.95858">
        <ele>7</ele>
        <time>2023-12-09T12:52:16Z</time>
      </trkpt>
      <trkpt lat="47.62942" lon="-2.95891">
        <ele>8</ele>
        <time>2023-12-09T12:54:37Z</time>
      </trkpt>
      <trkpt lat="47.62856" lon="-2.95856">
        <ele>10</ele>
        <time>2023-12-09T12:56:36Z</time>
      </trkpt>
      <trkpt lat="47.62764" lon="-2.95828">
        <ele>4</ele>
        <time>2023-12-09T12:58:41Z</time>
      </trkpt>
      <trkpt lat="47.6276" lon="-2.9571">
        <ele>9</ele>
        <time>2023-12-09T13:00:27Z</time>
      </trkpt>
      <trkpt lat="47.62713" lon="-2.95728">
        <ele>6</ele>
        <time>2023-12-09T13:01:32Z</time>
      </trkpt>
      <trkpt lat="47.62634" lon="-2.95602">
        <ele>9</ele>
        <time>2023-12-09T13:04:07Z</time>
      </trkpt>
      <trkpt lat="47.6267" lon="-2.95364">
        <ele>6</ele>
        <time>2023-12-09T13:07:46Z</time>
      </trkpt>
      <trkpt lat="47.62739" lon="-2.95097">
        <ele>5</ele>
        <time>2023-12-09T13:12:03Z</time>
      </trkpt>
      <trkpt lat="47.62808" lon="-2.94999">
        <ele>6</ele>
        <time>2023-12-09T13:14:11Z</time>
      </trkpt>
      <trkpt lat="47.62759" lon="-2.94832">
        <ele>3</ele>
        <time>2023-12-09T13:16:55Z</time>
      </trkpt>
      <trkpt lat="47.62952" lon="-2.94702">
        <ele>5</ele>
        <time>2023-12-09T13:21:38Z</time>
      </trkpt>
      <trkpt lat="47.62906" lon="-2.94575">
        <ele>5</ele>
        <time>2023-12-09T13:23:47Z</time>
      </trkpt>
      <trkpt lat="47.62884" lon="-2.9442">
        <ele>5</ele>
        <time>2023-12-09T13:26:10Z</time>
      </trkpt>
      <trkpt lat="47.62938" lon="-2.94281">
        <ele>7</ele>
        <time>2023-12-09T13:28:34Z</time>
      </trkpt>
      <trkpt lat="47.62883" lon="-2.94052">
        <ele>5</ele>
        <time>2023-12-09T13:32:13Z</time>
      </trkpt>
      <trkpt lat="47.62812" lon="-2.93958">
        <ele>5</ele>
        <time>2023-12-09T13:34:20Z</time>
      </trkpt>
      <trkpt lat="47.62732" lon="-2.93868">
        <ele>4</ele>
        <time>2023-12-09T13:36:34Z</time>
      </trkpt>
      <trkpt lat="47.62699" lon="-2.93762">
        <ele>5</ele>
        <time>2023-12-09T13:38:19Z</time>
      </trkpt>
      <trkpt lat="47.62649" lon="-2.93661">
        <ele>6</ele>
        <time>2023-12-09T13:40:11Z</time>
      </trkpt>
      <trkpt lat="47.62591" lon="-2.93585">
        <ele>4</ele>
        <time>2023-12-09T13:41:55Z</time>
      </trkpt>
      <trkpt lat="47.62558" lon="-2.93513">
        <ele>7</ele>
        <time>2023-12-09T13:43:13Z</time>
      </trkpt>
      <trkpt lat="47.62531" lon="-2.93478">
        <ele>7</ele>
        <time>2023-12-09T13:44:01Z</time>
      </trkpt>
      <trkpt lat="47.62502" lon="-2.93641">
        <ele>5</ele>
        <time>2023-12-09T13:46:32Z</time>
      </trkpt>
      <trkpt lat="47.6253" lon="-2.93709">
        <ele>4</ele>
        <time>2023-12-09T13:47:44Z</time>
      </trkpt>
      <trkpt lat="47.62534" lon="-2.93778">
        <ele>3</ele>
        <time>2023-12-09T13:48:46Z</time>
      </trkpt>
      <trkpt lat="47.6255" lon="-2.93879">
        <ele>2</ele>
        <time>2023-12-09T13:50:20Z</time>
      </trkpt>
      <trkpt lat="47.62556" lon="-2.93956">
        <ele>2</ele>
        <time>2023-12-09T13:51:29Z</time>
      </trkpt>
      <trkpt lat="47.6253" lon="-2.94036">
        <ele>3</ele>
        <time>2023-12-09T13:52:49Z</time>
      </trkpt>
      <trkpt lat="47.62531" lon="-2.94151">
        <ele>4</ele>
        <time>2023-12-09T13:54:33Z</time>
      </trkpt>
      <trkpt lat="47.62581" lon="-2.94231">
        <ele>2</ele>
        <time>2023-12-09T13:56:11Z</time>
      </trkpt>
      <trkpt lat="47.62568" lon="-2.94308">
        <ele>2</ele>
        <time>2023-12-09T13:57:22Z</time>
      </trkpt>
      <trkpt lat="47.62485" lon="-2.94417">
        <ele>2</ele>
        <time>2023-12-09T13:59:50Z</time>
      </trkpt>
      <trkpt lat="47.62416" lon="-2.94485">
        <ele>1</ele>
        <time>2023-12-09T14:01:41Z</time>
      </trkpt>
      <trkpt lat="47.62336" lon="-2.94633">
        <ele>3</ele>
        <time>2023-12-09T14:04:31Z</time>
      </trkpt>
      <trkpt lat="47.62116" lon="-2.94801">
        <ele>8</ele>
        <time>2023-12-09T14:10:01Z</time>
      </trkpt>
      <trkpt lat="47.62091" lon="-2.94897">
        <ele>4</ele>
        <time>2023-12-09T14:11:34Z</time>
      </trkpt>
      <trkpt lat="47.62009" lon="-2.94891">
        <ele>6</ele>
        <time>2023-12-09T14:13:24Z</time>
      </trkpt>
      <trkpt lat="47.6194" lon="-2.94832">
        <ele>15</ele>
        <time>2023-12-09T14:15:10Z</time>
      </trkpt>
      <trkpt lat="47.61859" lon="-2.94842">
        <ele>14</ele>
        <time>2023-12-09T14:16:58Z</time>
      </trkpt>
      <trkpt lat="47.61787" lon="-2.94842">
        <ele>9</ele>
        <time>2023-12-09T14:18:34Z</time>
      </trkpt>
      <trkpt lat="47.61713" lon="-2.94801">
        <ele>6</ele>
        <time>2023-12-09T14:20:20Z</time>
      </trkpt>
      <trkpt lat="47.61645" lon="-2.94758">
        <ele>7</ele>
        <time>2023-12-09T14:21:58Z</time>
      </trkpt>
      <trkpt lat="47.61585" lon="-2.94763">
        <ele>10</ele>
        <time>2023-12-09T14:23:19Z</time>
      </trkpt>
      <trkpt lat="47.61523" lon="-2.94774">
        <ele>8</ele>
        <time>2023-12-09T14:24:42Z</time>
      </trkpt>
      <trkpt lat="47.61494" lon="-2.94815">
        <ele>4</ele>
        <time>2023-12-09T14:25:35Z</time>
      </trkpt>
      <trkpt lat="47.61434" lon="-2.94835">
        <ele>4</ele>
        <time>2023-12-09T14:26:57Z</time>
      </trkpt>
      <trkpt lat="47.61386" lon="-2.94779">
        <ele>6</ele>
        <time>2023-12-09T14:28:19Z</time>
      </trkpt>
      <trkpt lat="47.6132" lon="-2.94707">
        <ele>5</ele>
        <time>2023-12-09T14:30:08Z</time>
      </trkpt>
      <trkpt lat="47.61313" lon="-2.94649">
        <ele>6</ele>
        <time>2023-12-09T14:31:01Z</time>
      </trkpt>
      <trkpt lat="47.61134" lon="-2.94696">
        <ele>4</ele>
        <time>2023-12-09T14:35:04Z</time>
      </trkpt>
      <trkpt lat="47.61141" lon="-2.94862">
        <ele>2</ele>
        <time>2023-12-09T14:37:33Z</time>
      </trkpt>
    </trkseg>
  </trk>
  <trk>
    <name><![CDATA[larmor-baden port blanc-10068651]]></name>
    <extensions>
      <line xmlns="http://www.topografix.com/GPX/gpx_style/0/2">
        <color>FF0000</color>
        <width>4</width>
      </line>
    </extensions>
    <trkseg>
      <trkpt lat="47.58972" lon="-2.8999">
        <ele>4</ele>
        <time>2023-12-09T08:11:37Z</time>
      </trkpt>
      <trkpt lat="47.58964" lon="-2.89987">
        <ele>4</ele>
        <time>2023-12-09T08:11:48Z</time>
      </trkpt>
      <trkpt lat="47.58954" lon="-2.90002">
        <ele>5</ele>
        <time>2023-12-09T08:12:07Z</time>
      </trkpt>
      <trkpt lat="47.58936" lon="-2.90015">
        <ele>5</ele>
        <time>2023-12-09T08:12:34Z</time>
      </trkpt>
      <trkpt lat="47.58931" lon="-2.90012">
        <ele>5</ele>
        <time>2023-12-09T08:12:41Z</time>
      </trkpt>
      <trkpt lat="47.58917" lon="-2.90013">
        <ele>5</ele>
        <time>2023-12-09T08:13:00Z</time>
      </trkpt>
      <trkpt lat="47.58913" lon="-2.9001">
        <ele>5</ele>
        <time>2023-12-09T08:13:06Z</time>
      </trkpt>
      <trkpt lat="47.58896" lon="-2.89975">
        <ele>5</ele>
        <time>2023-12-09T08:13:44Z</time>
      </trkpt>
      <trkpt lat="47.58876" lon="-2.89956">
        <ele>5</ele>
        <time>2023-12-09T08:14:16Z</time>
      </trkpt>
      <trkpt lat="47.58866" lon="-2.89959">
        <ele>6</ele>
        <time>2023-12-09T08:14:30Z</time>
      </trkpt>
      <trkpt lat="47.58862" lon="-2.89956">
        <ele>6</ele>
        <time>2023-12-09T08:14:36Z</time>
      </trkpt>
      <trkpt lat="47.58847" lon="-2.89926">
        <ele>6</ele>
        <time>2023-12-09T08:15:09Z</time>
      </trkpt>
      <trkpt lat="47.58811" lon="-2.89867">
        <ele>8</ele>
        <time>2023-12-09T08:16:21Z</time>
      </trkpt>
      <trkpt lat="47.58775" lon="-2.89814">
        <ele>11</ele>
        <time>2023-12-09T08:17:29Z</time>
      </trkpt>
      <trkpt lat="47.58747" lon="-2.89796">
        <ele>12</ele>
        <time>2023-12-09T08:18:09Z</time>
      </trkpt>
      <trkpt lat="47.58727" lon="-2.8979">
        <ele>11</ele>
        <time>2023-12-09T08:18:37Z</time>
      </trkpt>
      <trkpt lat="47.58726" lon="-2.89784">
        <ele>11</ele>
        <time>2023-12-09T08:18:42Z</time>
      </trkpt>
      <trkpt lat="47.58717" lon="-2.89791">
        <ele>11</ele>
        <time>2023-12-09T08:18:56Z</time>
      </trkpt>
      <trkpt lat="47.58714" lon="-2.89807">
        <ele>11</ele>
        <time>2023-12-09T08:19:11Z</time>
      </trkpt>
      <trkpt lat="47.58722" lon="-2.89829">
        <ele>11</ele>
        <time>2023-12-09T08:19:33Z</time>
      </trkpt>
      <trkpt lat="47.58721" lon="-2.89841">
        <ele>11</ele>
        <time>2023-12-09T08:19:44Z</time>
      </trkpt>
      <trkpt lat="47.58708" lon="-2.89855">
        <ele>10</ele>
        <time>2023-12-09T08:20:05Z</time>
      </trkpt>
      <trkpt lat="47.58678" lon="-2.89871">
        <ele>8</ele>
        <time>2023-12-09T08:20:48Z</time>
      </trkpt>
      <trkpt lat="47.58671" lon="-2.8987">
        <ele>8</ele>
        <time>2023-12-09T08:20:57Z</time>
      </trkpt>
      <trkpt lat="47.58662" lon="-2.89875">
        <ele>8</ele>
        <time>2023-12-09T08:21:10Z</time>
      </trkpt>
      <trkpt lat="47.5864" lon="-2.89898">
        <ele>6</ele>
        <time>2023-12-09T08:21:46Z</time>
      </trkpt>
      <trkpt lat="47.5862" lon="-2.89904">
        <ele>6</ele>
        <time>2023-12-09T08:22:13Z</time>
      </trkpt>
      <trkpt lat="47.58613" lon="-2.89901">
        <ele>5</ele>
        <time>2023-12-09T08:22:23Z</time>
      </trkpt>
      <trkpt lat="47.58608" lon="-2.89905">
        <ele>5</ele>
        <time>2023-12-09T08:22:31Z</time>
      </trkpt>
      <trkpt lat="47.58602" lon="-2.89904">
        <ele>5</ele>
        <time>2023-12-09T08:22:39Z</time>
      </trkpt>
      <trkpt lat="47.58582" lon="-2.89914">
        <ele>4</ele>
        <time>2023-12-09T08:23:07Z</time>
      </trkpt>
      <trkpt lat="47.58572" lon="-2.89911">
        <ele>4</ele>
        <time>2023-12-09T08:23:21Z</time>
      </trkpt>
      <trkpt lat="47.58569" lon="-2.89897">
        <ele>4</ele>
        <time>2023-12-09T08:23:34Z</time>
      </trkpt>
      <trkpt lat="47.58564" lon="-2.89888">
        <ele>4</ele>
        <time>2023-12-09T08:23:44Z</time>
      </trkpt>
      <trkpt lat="47.58568" lon="-2.89849">
        <ele>5</ele>
        <time>2023-12-09T08:24:20Z</time>
      </trkpt>
      <trkpt lat="47.58572" lon="-2.89836">
        <ele>6</ele>
        <time>2023-12-09T08:24:33Z</time>
      </trkpt>
      <trkpt lat="47.58569" lon="-2.89786">
        <ele>5</ele>
        <time>2023-12-09T08:25:18Z</time>
      </trkpt>
      <trkpt lat="47.58563" lon="-2.89758">
        <ele>5</ele>
        <time>2023-12-09T08:25:44Z</time>
      </trkpt>
      <trkpt lat="47.58546" lon="-2.89704">
        <ele>4</ele>
        <time>2023-12-09T08:26:38Z</time>
      </trkpt>
      <trkpt lat="47.58529" lon="-2.89631">
        <ele>5</ele>
        <time>2023-12-09T08:27:47Z</time>
      </trkpt>
      <trkpt lat="47.58511" lon="-2.8958">
        <ele>6</ele>
        <time>2023-12-09T08:28:39Z</time>
      </trkpt>
      <trkpt lat="47.58504" lon="-2.89569">
        <ele>6</ele>
        <time>2023-12-09T08:28:53Z</time>
      </trkpt>
      <trkpt lat="47.58487" lon="-2.89553">
        <ele>6</ele>
        <time>2023-12-09T08:29:20Z</time>
      </trkpt>
      <trkpt lat="47.58477" lon="-2.89527">
        <ele>6</ele>
        <time>2023-12-09T08:29:47Z</time>
      </trkpt>
      <trkpt lat="47.58438" lon="-2.89527">
        <ele>6</ele>
        <time>2023-12-09T08:30:39Z</time>
      </trkpt>
      <trkpt lat="47.58433" lon="-2.89529">
        <ele>5</ele>
        <time>2023-12-09T08:30:46Z</time>
      </trkpt>
      <trkpt lat="47.58426" lon="-2.89557">
        <ele>4</ele>
        <time>2023-12-09T08:31:12Z</time>
      </trkpt>
      <trkpt lat="47.58422" lon="-2.89562">
        <ele>4</ele>
        <time>2023-12-09T08:31:19Z</time>
      </trkpt>
      <trkpt lat="47.5839" lon="-2.89566">
        <ele>4</ele>
        <time>2023-12-09T08:32:02Z</time>
      </trkpt>
      <trkpt lat="47.58348" lon="-2.89588">
        <ele>3</ele>
        <time>2023-12-09T08:33:02Z</time>
      </trkpt>
      <trkpt lat="47.58345" lon="-2.89583">
        <ele>3</ele>
        <time>2023-12-09T08:33:08Z</time>
      </trkpt>
      <trkpt lat="47.58334" lon="-2.89531">
        <ele>6</ele>
        <time>2023-12-09T08:33:57Z</time>
      </trkpt>
      <trkpt lat="47.58326" lon="-2.89529">
        <ele>5</ele>
        <time>2023-12-09T08:34:08Z</time>
      </trkpt>
      <trkpt lat="47.58271" lon="-2.89553">
        <ele>3</ele>
        <time>2023-12-09T08:35:24Z</time>
      </trkpt>
      <trkpt lat="47.58261" lon="-2.8957">
        <ele>2</ele>
        <time>2023-12-09T08:35:44Z</time>
      </trkpt>
      <trkpt lat="47.5825" lon="-2.89571">
        <ele>1</ele>
        <time>2023-12-09T08:35:59Z</time>
      </trkpt>
      <trkpt lat="47.58247" lon="-2.89565">
        <ele>2</ele>
        <time>2023-12-09T08:36:06Z</time>
      </trkpt>
      <trkpt lat="47.58243" lon="-2.89541">
        <ele>2</ele>
        <time>2023-12-09T08:36:28Z</time>
      </trkpt>
      <trkpt lat="47.58251" lon="-2.89506">
        <ele>4</ele>
        <time>2023-12-09T08:37:01Z</time>
      </trkpt>
      <trkpt lat="47.58247" lon="-2.89493">
        <ele>4</ele>
        <time>2023-12-09T08:37:14Z</time>
      </trkpt>
      <trkpt lat="47.58246" lon="-2.89474">
        <ele>4</ele>
        <time>2023-12-09T08:37:31Z</time>
      </trkpt>
      <trkpt lat="47.58251" lon="-2.8945">
        <ele>5</ele>
        <time>2023-12-09T08:37:54Z</time>
      </trkpt>
      <trkpt lat="47.5825" lon="-2.89435">
        <ele>5</ele>
        <time>2023-12-09T08:38:08Z</time>
      </trkpt>
      <trkpt lat="47.58244" lon="-2.89422">
        <ele>5</ele>
        <time>2023-12-09T08:38:22Z</time>
      </trkpt>
      <trkpt lat="47.58246" lon="-2.89385">
        <ele>5</ele>
        <time>2023-12-09T08:38:55Z</time>
      </trkpt>
      <trkpt lat="47.58237" lon="-2.89334">
        <ele>5</ele>
        <time>2023-12-09T08:39:43Z</time>
      </trkpt>
      <trkpt lat="47.5824" lon="-2.89285">
        <ele>7</ele>
        <time>2023-12-09T08:40:27Z</time>
      </trkpt>
      <trkpt lat="47.58247" lon="-2.89278">
        <ele>8</ele>
        <time>2023-12-09T08:40:38Z</time>
      </trkpt>
      <trkpt lat="47.58246" lon="-2.89266">
        <ele>8</ele>
        <time>2023-12-09T08:40:49Z</time>
      </trkpt>
      <trkpt lat="47.58216" lon="-2.8919">
        <ele>8</ele>
        <time>2023-12-09T08:42:08Z</time>
      </trkpt>
      <trkpt lat="47.58206" lon="-2.89181">
        <ele>7</ele>
        <time>2023-12-09T08:42:24Z</time>
      </trkpt>
      <trkpt lat="47.58198" lon="-2.89178">
        <ele>6</ele>
        <time>2023-12-09T08:42:35Z</time>
      </trkpt>
      <trkpt lat="47.58201" lon="-2.89169">
        <ele>7</ele>
        <time>2023-12-09T08:42:44Z</time>
      </trkpt>
      <trkpt lat="47.58207" lon="-2.89168">
        <ele>7</ele>
        <time>2023-12-09T08:42:52Z</time>
      </trkpt>
      <trkpt lat="47.58209" lon="-2.89156">
        <ele>8</ele>
        <time>2023-12-09T08:43:03Z</time>
      </trkpt>
      <trkpt lat="47.58213" lon="-2.89152">
        <ele>8</ele>
        <time>2023-12-09T08:43:10Z</time>
      </trkpt>
      <trkpt lat="47.58206" lon="-2.89138">
        <ele>7</ele>
        <time>2023-12-09T08:43:25Z</time>
      </trkpt>
      <trkpt lat="47.58198" lon="-2.89104">
        <ele>7</ele>
        <time>2023-12-09T08:43:58Z</time>
      </trkpt>
      <trkpt lat="47.58201" lon="-2.89069">
        <ele>6</ele>
        <time>2023-12-09T08:44:29Z</time>
      </trkpt>
      <trkpt lat="47.58203" lon="-2.89062">
        <ele>6</ele>
        <time>2023-12-09T08:44:36Z</time>
      </trkpt>
      <trkpt lat="47.5821" lon="-2.89052">
        <ele>5</ele>
        <time>2023-12-09T08:44:49Z</time>
      </trkpt>
      <trkpt lat="47.58237" lon="-2.89042">
        <ele>6</ele>
        <time>2023-12-09T08:45:26Z</time>
      </trkpt>
      <trkpt lat="47.58249" lon="-2.89031">
        <ele>6</ele>
        <time>2023-12-09T08:45:45Z</time>
      </trkpt>
      <trkpt lat="47.58284" lon="-2.8901">
        <ele>4</ele>
        <time>2023-12-09T08:46:36Z</time>
      </trkpt>
      <trkpt lat="47.58299" lon="-2.8901">
        <ele>5</ele>
        <time>2023-12-09T08:46:56Z</time>
      </trkpt>
      <trkpt lat="47.58314" lon="-2.89019">
        <ele>6</ele>
        <time>2023-12-09T08:47:17Z</time>
      </trkpt>
      <trkpt lat="47.58318" lon="-2.89027">
        <ele>7</ele>
        <time>2023-12-09T08:47:26Z</time>
      </trkpt>
      <trkpt lat="47.58377" lon="-2.89079">
        <ele>12</ele>
        <time>2023-12-09T08:48:58Z</time>
      </trkpt>
      <trkpt lat="47.58407" lon="-2.89098">
        <ele>13</ele>
        <time>2023-12-09T08:49:41Z</time>
      </trkpt>
      <trkpt lat="47.58464" lon="-2.89145">
        <ele>14</ele>
        <time>2023-12-09T08:51:08Z</time>
      </trkpt>
      <trkpt lat="47.58501" lon="-2.89168">
        <ele>14</ele>
        <time>2023-12-09T08:52:02Z</time>
      </trkpt>
      <trkpt lat="47.58521" lon="-2.89186">
        <ele>15</ele>
        <time>2023-12-09T08:52:33Z</time>
      </trkpt>
      <trkpt lat="47.58581" lon="-2.89194">
        <ele>16</ele>
        <time>2023-12-09T08:53:54Z</time>
      </trkpt>
      <trkpt lat="47.5859" lon="-2.892">
        <ele>17</ele>
        <time>2023-12-09T08:54:07Z</time>
      </trkpt>
      <trkpt lat="47.58599" lon="-2.89214">
        <ele>17</ele>
        <time>2023-12-09T08:54:24Z</time>
      </trkpt>
      <trkpt lat="47.586" lon="-2.89221">
        <ele>18</ele>
        <time>2023-12-09T08:54:31Z</time>
      </trkpt>
      <trkpt lat="47.58602" lon="-2.89253">
        <ele>19</ele>
        <time>2023-12-09T08:54:59Z</time>
      </trkpt>
      <trkpt lat="47.58597" lon="-2.89281">
        <ele>19</ele>
        <time>2023-12-09T08:55:26Z</time>
      </trkpt>
      <trkpt lat="47.58599" lon="-2.89289">
        <ele>19</ele>
        <time>2023-12-09T08:55:33Z</time>
      </trkpt>
      <trkpt lat="47.58608" lon="-2.89294">
        <ele>19</ele>
        <time>2023-12-09T08:55:46Z</time>
      </trkpt>
      <trkpt lat="47.58627" lon="-2.89286">
        <ele>20</ele>
        <time>2023-12-09T08:56:12Z</time>
      </trkpt>
      <trkpt lat="47.58642" lon="-2.89289">
        <ele>21</ele>
        <time>2023-12-09T08:56:33Z</time>
      </trkpt>
      <trkpt lat="47.58683" lon="-2.89312">
        <ele>21</ele>
        <time>2023-12-09T08:57:31Z</time>
      </trkpt>
      <trkpt lat="47.5869" lon="-2.89306">
        <ele>21</ele>
        <time>2023-12-09T08:57:42Z</time>
      </trkpt>
      <trkpt lat="47.58697" lon="-2.8928">
        <ele>21</ele>
        <time>2023-12-09T08:58:07Z</time>
      </trkpt>
      <trkpt lat="47.58706" lon="-2.89217">
        <ele>20</ele>
        <time>2023-12-09T08:59:05Z</time>
      </trkpt>
      <trkpt lat="47.58698" lon="-2.89174">
        <ele>19</ele>
        <time>2023-12-09T08:59:45Z</time>
      </trkpt>
      <trkpt lat="47.58699" lon="-2.89156">
        <ele>18</ele>
        <time>2023-12-09T09:00:01Z</time>
      </trkpt>
      <trkpt lat="47.58715" lon="-2.89136">
        <ele>16</ele>
        <time>2023-12-09T09:00:29Z</time>
      </trkpt>
      <trkpt lat="47.58737" lon="-2.89122">
        <ele>15</ele>
        <time>2023-12-09T09:01:01Z</time>
      </trkpt>
      <trkpt lat="47.58741" lon="-2.89117">
        <ele>15</ele>
        <time>2023-12-09T09:01:08Z</time>
      </trkpt>
      <trkpt lat="47.58817" lon="-2.89081">
        <ele>15</ele>
        <time>2023-12-09T09:02:55Z</time>
      </trkpt>
      <trkpt lat="47.58832" lon="-2.8908">
        <ele>16</ele>
        <time>2023-12-09T09:03:15Z</time>
      </trkpt>
      <trkpt lat="47.58841" lon="-2.89076">
        <ele>15</ele>
        <time>2023-12-09T09:03:27Z</time>
      </trkpt>
      <trkpt lat="47.58857" lon="-2.89074">
        <ele>16</ele>
        <time>2023-12-09T09:03:49Z</time>
      </trkpt>
      <trkpt lat="47.58863" lon="-2.89064">
        <ele>15</ele>
        <time>2023-12-09T09:04:01Z</time>
      </trkpt>
      <trkpt lat="47.58864" lon="-2.89057">
        <ele>14</ele>
        <time>2023-12-09T09:04:07Z</time>
      </trkpt>
      <trkpt lat="47.58861" lon="-2.89037">
        <ele>11</ele>
        <time>2023-12-09T09:04:26Z</time>
      </trkpt>
      <trkpt lat="47.58864" lon="-2.8903">
        <ele>11</ele>
        <time>2023-12-09T09:04:33Z</time>
      </trkpt>
      <trkpt lat="47.58874" lon="-2.8903">
        <ele>11</ele>
        <time>2023-12-09T09:04:47Z</time>
      </trkpt>
      <trkpt lat="47.58894" lon="-2.89022">
        <ele>11</ele>
        <time>2023-12-09T09:05:14Z</time>
      </trkpt>
      <trkpt lat="47.58918" lon="-2.8902">
        <ele>12</ele>
        <time>2023-12-09T09:05:46Z</time>
      </trkpt>
      <trkpt lat="47.58922" lon="-2.89017">
        <ele>12</ele>
        <time>2023-12-09T09:05:52Z</time>
      </trkpt>
      <trkpt lat="47.58932" lon="-2.89021">
        <ele>13</ele>
        <time>2023-12-09T09:06:06Z</time>
      </trkpt>
      <trkpt lat="47.58939" lon="-2.89032">
        <ele>15</ele>
        <time>2023-12-09T09:06:20Z</time>
      </trkpt>
      <trkpt lat="47.58956" lon="-2.89035">
        <ele>15</ele>
        <time>2023-12-09T09:06:43Z</time>
      </trkpt>
      <trkpt lat="47.58966" lon="-2.89034">
        <ele>16</ele>
        <time>2023-12-09T09:06:56Z</time>
      </trkpt>
      <trkpt lat="47.5898" lon="-2.89025">
        <ele>15</ele>
        <time>2023-12-09T09:07:16Z</time>
      </trkpt>
      <trkpt lat="47.58986" lon="-2.89024">
        <ele>15</ele>
        <time>2023-12-09T09:07:24Z</time>
      </trkpt>
      <trkpt lat="47.58995" lon="-2.89015">
        <ele>14</ele>
        <time>2023-12-09T09:07:39Z</time>
      </trkpt>
      <trkpt lat="47.59" lon="-2.89014">
        <ele>15</ele>
        <time>2023-12-09T09:07:46Z</time>
      </trkpt>
      <trkpt lat="47.59011" lon="-2.88996">
        <ele>13</ele>
        <time>2023-12-09T09:08:07Z</time>
      </trkpt>
      <trkpt lat="47.59022" lon="-2.88998">
        <ele>14</ele>
        <time>2023-12-09T09:08:22Z</time>
      </trkpt>
      <trkpt lat="47.59026" lon="-2.89001">
        <ele>14</ele>
        <time>2023-12-09T09:08:28Z</time>
      </trkpt>
      <trkpt lat="47.59031" lon="-2.89">
        <ele>14</ele>
        <time>2023-12-09T09:08:35Z</time>
      </trkpt>
      <trkpt lat="47.59034" lon="-2.89007">
        <ele>15</ele>
        <time>2023-12-09T09:08:42Z</time>
      </trkpt>
      <trkpt lat="47.5904" lon="-2.89005">
        <ele>15</ele>
        <time>2023-12-09T09:08:51Z</time>
      </trkpt>
      <trkpt lat="47.59044" lon="-2.89002">
        <ele>15</ele>
        <time>2023-12-09T09:08:57Z</time>
      </trkpt>
      <trkpt lat="47.59043" lon="-2.88984">
        <ele>13</ele>
        <time>2023-12-09T09:09:13Z</time>
      </trkpt>
      <trkpt lat="47.59047" lon="-2.88987">
        <ele>13</ele>
        <time>2023-12-09T09:09:19Z</time>
      </trkpt>
      <trkpt lat="47.59056" lon="-2.88985">
        <ele>13</ele>
        <time>2023-12-09T09:09:31Z</time>
      </trkpt>
      <trkpt lat="47.59059" lon="-2.88972">
        <ele>12</ele>
        <time>2023-12-09T09:09:43Z</time>
      </trkpt>
      <trkpt lat="47.59067" lon="-2.88972">
        <ele>12</ele>
        <time>2023-12-09T09:09:54Z</time>
      </trkpt>
      <trkpt lat="47.59083" lon="-2.88983">
        <ele>14</ele>
        <time>2023-12-09T09:10:18Z</time>
      </trkpt>
      <trkpt lat="47.59082" lon="-2.8899">
        <ele>15</ele>
        <time>2023-12-09T09:10:24Z</time>
      </trkpt>
      <trkpt lat="47.59089" lon="-2.8901">
        <ele>17</ele>
        <time>2023-12-09T09:10:44Z</time>
      </trkpt>
      <trkpt lat="47.59107" lon="-2.89043">
        <ele>20</ele>
        <time>2023-12-09T09:11:22Z</time>
      </trkpt>
      <trkpt lat="47.59125" lon="-2.8905">
        <ele>20</ele>
        <time>2023-12-09T09:11:47Z</time>
      </trkpt>
      <trkpt lat="47.59133" lon="-2.89061">
        <ele>21</ele>
        <time>2023-12-09T09:12:02Z</time>
      </trkpt>
      <trkpt lat="47.59149" lon="-2.89125">
        <ele>19</ele>
        <time>2023-12-09T09:13:03Z</time>
      </trkpt>
      <trkpt lat="47.59161" lon="-2.89099">
        <ele>20</ele>
        <time>2023-12-09T09:13:32Z</time>
      </trkpt>
      <trkpt lat="47.59164" lon="-2.89081">
        <ele>20</ele>
        <time>2023-12-09T09:13:48Z</time>
      </trkpt>
      <trkpt lat="47.59172" lon="-2.89062">
        <ele>21</ele>
        <time>2023-12-09T09:14:08Z</time>
      </trkpt>
      <trkpt lat="47.59184" lon="-2.89045">
        <ele>21</ele>
        <time>2023-12-09T09:14:31Z</time>
      </trkpt>
      <trkpt lat="47.59233" lon="-2.89009">
        <ele>23</ele>
        <time>2023-12-09T09:15:44Z</time>
      </trkpt>
      <trkpt lat="47.59245" lon="-2.88995">
        <ele>23</ele>
        <time>2023-12-09T09:16:04Z</time>
      </trkpt>
      <trkpt lat="47.5927" lon="-2.88978">
        <ele>21</ele>
        <time>2023-12-09T09:16:41Z</time>
      </trkpt>
      <trkpt lat="47.59274" lon="-2.8898">
        <ele>21</ele>
        <time>2023-12-09T09:16:46Z</time>
      </trkpt>
      <trkpt lat="47.593" lon="-2.88979">
        <ele>20</ele>
        <time>2023-12-09T09:17:21Z</time>
      </trkpt>
      <trkpt lat="47.59305" lon="-2.88983">
        <ele>20</ele>
        <time>2023-12-09T09:17:29Z</time>
      </trkpt>
      <trkpt lat="47.59306" lon="-2.8901">
        <ele>21</ele>
        <time>2023-12-09T09:17:53Z</time>
      </trkpt>
      <trkpt lat="47.59317" lon="-2.89084">
        <ele>18</ele>
        <time>2023-12-09T09:19:01Z</time>
      </trkpt>
      <trkpt lat="47.59322" lon="-2.89097">
        <ele>18</ele>
        <time>2023-12-09T09:19:15Z</time>
      </trkpt>
      <trkpt lat="47.59327" lon="-2.89099">
        <ele>18</ele>
        <time>2023-12-09T09:19:21Z</time>
      </trkpt>
      <trkpt lat="47.59331" lon="-2.89099">
        <ele>17</ele>
        <time>2023-12-09T09:19:27Z</time>
      </trkpt>
      <trkpt lat="47.59404" lon="-2.89056">
        <ele>19</ele>
        <time>2023-12-09T09:21:12Z</time>
      </trkpt>
      <trkpt lat="47.59452" lon="-2.89041">
        <ele>18</ele>
        <time>2023-12-09T09:22:17Z</time>
      </trkpt>
      <trkpt lat="47.59461" lon="-2.89032">
        <ele>17</ele>
        <time>2023-12-09T09:22:32Z</time>
      </trkpt>
      <trkpt lat="47.59475" lon="-2.89034">
        <ele>17</ele>
        <time>2023-12-09T09:22:50Z</time>
      </trkpt>
      <trkpt lat="47.59485" lon="-2.89032">
        <ele>17</ele>
        <time>2023-12-09T09:23:04Z</time>
      </trkpt>
      <trkpt lat="47.59528" lon="-2.89039">
        <ele>16</ele>
        <time>2023-12-09T09:24:02Z</time>
      </trkpt>
      <trkpt lat="47.59548" lon="-2.89049">
        <ele>17</ele>
        <time>2023-12-09T09:24:30Z</time>
      </trkpt>
      <trkpt lat="47.59551" lon="-2.89052">
        <ele>17</ele>
        <time>2023-12-09T09:24:35Z</time>
      </trkpt>
      <trkpt lat="47.59552" lon="-2.89059">
        <ele>17</ele>
        <time>2023-12-09T09:24:41Z</time>
      </trkpt>
      <trkpt lat="47.59573" lon="-2.89065">
        <ele>17</ele>
        <time>2023-12-09T09:25:10Z</time>
      </trkpt>
      <trkpt lat="47.59577" lon="-2.89072">
        <ele>17</ele>
        <time>2023-12-09T09:25:18Z</time>
      </trkpt>
      <trkpt lat="47.59577" lon="-2.89087">
        <ele>18</ele>
        <time>2023-12-09T09:25:31Z</time>
      </trkpt>
      <trkpt lat="47.5958" lon="-2.89094">
        <ele>17</ele>
        <time>2023-12-09T09:25:39Z</time>
      </trkpt>
      <trkpt lat="47.59587" lon="-2.89099">
        <ele>16</ele>
        <time>2023-12-09T09:25:49Z</time>
      </trkpt>
      <trkpt lat="47.59601" lon="-2.89116">
        <ele>13</ele>
        <time>2023-12-09T09:26:13Z</time>
      </trkpt>
      <trkpt lat="47.5961" lon="-2.89121">
        <ele>12</ele>
        <time>2023-12-09T09:26:26Z</time>
      </trkpt>
      <trkpt lat="47.59611" lon="-2.89132">
        <ele>11</ele>
        <time>2023-12-09T09:26:36Z</time>
      </trkpt>
      <trkpt lat="47.59607" lon="-2.89147">
        <ele>10</ele>
        <time>2023-12-09T09:26:51Z</time>
      </trkpt>
      <trkpt lat="47.59583" lon="-2.89174">
        <ele>10</ele>
        <time>2023-12-09T09:27:31Z</time>
      </trkpt>
      <trkpt lat="47.59581" lon="-2.89187">
        <ele>9</ele>
        <time>2023-12-09T09:27:43Z</time>
      </trkpt>
      <trkpt lat="47.59575" lon="-2.89194">
        <ele>9</ele>
        <time>2023-12-09T09:27:53Z</time>
      </trkpt>
      <trkpt lat="47.5958" lon="-2.89203">
        <ele>7</ele>
        <time>2023-12-09T09:28:03Z</time>
      </trkpt>
      <trkpt lat="47.59581" lon="-2.8921">
        <ele>6</ele>
        <time>2023-12-09T09:28:10Z</time>
      </trkpt>
      <trkpt lat="47.59562" lon="-2.89232">
        <ele>5</ele>
        <time>2023-12-09T09:28:42Z</time>
      </trkpt>
      <trkpt lat="47.59563" lon="-2.89242">
        <ele>4</ele>
        <time>2023-12-09T09:28:51Z</time>
      </trkpt>
      <trkpt lat="47.59627" lon="-2.89286">
        <ele>4</ele>
        <time>2023-12-09T09:30:25Z</time>
      </trkpt>
      <trkpt lat="47.59632" lon="-2.89286">
        <ele>4</ele>
        <time>2023-12-09T09:30:32Z</time>
      </trkpt>
      <trkpt lat="47.59642" lon="-2.89281">
        <ele>5</ele>
        <time>2023-12-09T09:30:46Z</time>
      </trkpt>
      <trkpt lat="47.59655" lon="-2.89318">
        <ele>5</ele>
        <time>2023-12-09T09:31:24Z</time>
      </trkpt>
      <trkpt lat="47.59665" lon="-2.89336">
        <ele>5</ele>
        <time>2023-12-09T09:31:45Z</time>
      </trkpt>
      <trkpt lat="47.59703" lon="-2.89371">
        <ele>6</ele>
        <time>2023-12-09T09:32:44Z</time>
      </trkpt>
      <trkpt lat="47.59711" lon="-2.89381">
        <ele>6</ele>
        <time>2023-12-09T09:32:58Z</time>
      </trkpt>
      <trkpt lat="47.59716" lon="-2.89392">
        <ele>6</ele>
        <time>2023-12-09T09:33:10Z</time>
      </trkpt>
      <trkpt lat="47.59733" lon="-2.89405">
        <ele>7</ele>
        <time>2023-12-09T09:33:36Z</time>
      </trkpt>
      <trkpt lat="47.59747" lon="-2.89423">
        <ele>6</ele>
        <time>2023-12-09T09:34:00Z</time>
      </trkpt>
      <trkpt lat="47.59756" lon="-2.89427">
        <ele>7</ele>
        <time>2023-12-09T09:34:13Z</time>
      </trkpt>
      <trkpt lat="47.59764" lon="-2.89435">
        <ele>7</ele>
        <time>2023-12-09T09:34:26Z</time>
      </trkpt>
      <trkpt lat="47.59769" lon="-2.89446">
        <ele>7</ele>
        <time>2023-12-09T09:34:38Z</time>
      </trkpt>
      <trkpt lat="47.59779" lon="-2.89451">
        <ele>8</ele>
        <time>2023-12-09T09:34:52Z</time>
      </trkpt>
      <trkpt lat="47.59785" lon="-2.89478">
        <ele>7</ele>
        <time>2023-12-09T09:35:17Z</time>
      </trkpt>
      <trkpt lat="47.59787" lon="-2.89523">
        <ele>5</ele>
        <time>2023-12-09T09:35:58Z</time>
      </trkpt>
      <trkpt lat="47.59792" lon="-2.89537">
        <ele>6</ele>
        <time>2023-12-09T09:36:12Z</time>
      </trkpt>
      <trkpt lat="47.59796" lon="-2.89565">
        <ele>5</ele>
        <time>2023-12-09T09:36:38Z</time>
      </trkpt>
      <trkpt lat="47.59812" lon="-2.8961">
        <ele>6</ele>
        <time>2023-12-09T09:37:24Z</time>
      </trkpt>
      <trkpt lat="47.59809" lon="-2.89645">
        <ele>6</ele>
        <time>2023-12-09T09:37:56Z</time>
      </trkpt>
      <trkpt lat="47.59806" lon="-2.89651">
        <ele>5</ele>
        <time>2023-12-09T09:38:02Z</time>
      </trkpt>
      <trkpt lat="47.59803" lon="-2.8967">
        <ele>5</ele>
        <time>2023-12-09T09:38:20Z</time>
      </trkpt>
      <trkpt lat="47.59802" lon="-2.89697">
        <ele>5</ele>
        <time>2023-12-09T09:38:44Z</time>
      </trkpt>
      <trkpt lat="47.59818" lon="-2.89746">
        <ele>5</ele>
        <time>2023-12-09T09:39:33Z</time>
      </trkpt>
      <trkpt lat="47.59848" lon="-2.89782">
        <ele>5</ele>
        <time>2023-12-09T09:40:25Z</time>
      </trkpt>
      <trkpt lat="47.59853" lon="-2.89794">
        <ele>5</ele>
        <time>2023-12-09T09:40:37Z</time>
      </trkpt>
      <trkpt lat="47.59876" lon="-2.89818">
        <ele>6</ele>
        <time>2023-12-09T09:41:15Z</time>
      </trkpt>
      <trkpt lat="47.59882" lon="-2.89829">
        <ele>6</ele>
        <time>2023-12-09T09:41:28Z</time>
      </trkpt>
      <trkpt lat="47.59889" lon="-2.89857">
        <ele>6</ele>
        <time>2023-12-09T09:41:54Z</time>
      </trkpt>
      <trkpt lat="47.59889" lon="-2.8988">
        <ele>5</ele>
        <time>2023-12-09T09:42:15Z</time>
      </trkpt>
      <trkpt lat="47.59895" lon="-2.8991">
        <ele>6</ele>
        <time>2023-12-09T09:42:43Z</time>
      </trkpt>
      <trkpt lat="47.59892" lon="-2.89952">
        <ele>5</ele>
        <time>2023-12-09T09:43:21Z</time>
      </trkpt>
      <trkpt lat="47.59937" lon="-2.89995">
        <ele>7</ele>
        <time>2023-12-09T09:44:33Z</time>
      </trkpt>
      <trkpt lat="47.59955" lon="-2.90002">
        <ele>9</ele>
        <time>2023-12-09T09:44:58Z</time>
      </trkpt>
      <trkpt lat="47.59972" lon="-2.90012">
        <ele>11</ele>
        <time>2023-12-09T09:45:22Z</time>
      </trkpt>
      <trkpt lat="47.59992" lon="-2.90029">
        <ele>12</ele>
        <time>2023-12-09T09:45:53Z</time>
      </trkpt>
      <trkpt lat="47.59996" lon="-2.90056">
        <ele>11</ele>
        <time>2023-12-09T09:46:18Z</time>
      </trkpt>
      <trkpt lat="47.59994" lon="-2.90069">
        <ele>10</ele>
        <time>2023-12-09T09:46:30Z</time>
      </trkpt>
      <trkpt lat="47.59999" lon="-2.90075">
        <ele>10</ele>
        <time>2023-12-09T09:46:38Z</time>
      </trkpt>
      <trkpt lat="47.60004" lon="-2.90075">
        <ele>10</ele>
        <time>2023-12-09T09:46:45Z</time>
      </trkpt>
      <trkpt lat="47.60025" lon="-2.9011">
        <ele>9</ele>
        <time>2023-12-09T09:47:27Z</time>
      </trkpt>
      <trkpt lat="47.60032" lon="-2.9012">
        <ele>8</ele>
        <time>2023-12-09T09:47:40Z</time>
      </trkpt>
      <trkpt lat="47.60037" lon="-2.90123">
        <ele>8</ele>
        <time>2023-12-09T09:47:47Z</time>
      </trkpt>
      <trkpt lat="47.60048" lon="-2.90149">
        <ele>7</ele>
        <time>2023-12-09T09:48:15Z</time>
      </trkpt>
      <trkpt lat="47.6006" lon="-2.90222">
        <ele>4</ele>
        <time>2023-12-09T09:49:22Z</time>
      </trkpt>
      <trkpt lat="47.6006" lon="-2.90236">
        <ele>4</ele>
        <time>2023-12-09T09:49:35Z</time>
      </trkpt>
      <trkpt lat="47.6005" lon="-2.90294">
        <ele>3</ele>
        <time>2023-12-09T09:50:29Z</time>
      </trkpt>
      <trkpt lat="47.60024" lon="-2.90352">
        <ele>4</ele>
        <time>2023-12-09T09:51:32Z</time>
      </trkpt>
      <trkpt lat="47.60021" lon="-2.90369">
        <ele>4</ele>
        <time>2023-12-09T09:51:47Z</time>
      </trkpt>
      <trkpt lat="47.60008" lon="-2.90382">
        <ele>4</ele>
        <time>2023-12-09T09:52:08Z</time>
      </trkpt>
      <trkpt lat="47.59994" lon="-2.90401">
        <ele>5</ele>
        <time>2023-12-09T09:52:34Z</time>
      </trkpt>
      <trkpt lat="47.59988" lon="-2.90414">
        <ele>5</ele>
        <time>2023-12-09T09:52:48Z</time>
      </trkpt>
      <trkpt lat="47.5998" lon="-2.90419">
        <ele>5</ele>
        <time>2023-12-09T09:52:59Z</time>
      </trkpt>
      <trkpt lat="47.59971" lon="-2.90434">
        <ele>5</ele>
        <time>2023-12-09T09:53:18Z</time>
      </trkpt>
      <trkpt lat="47.5997" lon="-2.90449">
        <ele>5</ele>
        <time>2023-12-09T09:53:31Z</time>
      </trkpt>
      <trkpt lat="47.59978" lon="-2.90459">
        <ele>5</ele>
        <time>2023-12-09T09:53:45Z</time>
      </trkpt>
      <trkpt lat="47.59988" lon="-2.90464">
        <ele>5</ele>
        <time>2023-12-09T09:53:59Z</time>
      </trkpt>
      <trkpt lat="47.60001" lon="-2.90479">
        <ele>6</ele>
        <time>2023-12-09T09:54:21Z</time>
      </trkpt>
      <trkpt lat="47.60017" lon="-2.90492">
        <ele>5</ele>
        <time>2023-12-09T09:54:45Z</time>
      </trkpt>
      <trkpt lat="47.60021" lon="-2.90489">
        <ele>5</ele>
        <time>2023-12-09T09:54:51Z</time>
      </trkpt>
      <trkpt lat="47.60032" lon="-2.90469">
        <ele>5</ele>
        <time>2023-12-09T09:55:15Z</time>
      </trkpt>
      <trkpt lat="47.60039" lon="-2.90462">
        <ele>4</ele>
        <time>2023-12-09T09:55:26Z</time>
      </trkpt>
      <trkpt lat="47.60044" lon="-2.90449">
        <ele>4</ele>
        <time>2023-12-09T09:55:39Z</time>
      </trkpt>
      <trkpt lat="47.6007" lon="-2.90404">
        <ele>3</ele>
        <time>2023-12-09T09:56:33Z</time>
      </trkpt>
      <trkpt lat="47.60106" lon="-2.90361">
        <ele>2</ele>
        <time>2023-12-09T09:57:34Z</time>
      </trkpt>
      <trkpt lat="47.6012" lon="-2.90352">
        <ele>2</ele>
        <time>2023-12-09T09:57:55Z</time>
      </trkpt>
      <trkpt lat="47.60135" lon="-2.90334">
        <ele>2</ele>
        <time>2023-12-09T09:58:20Z</time>
      </trkpt>
      <trkpt lat="47.60145" lon="-2.90332">
        <ele>2</ele>
        <time>2023-12-09T09:58:34Z</time>
      </trkpt>
      <trkpt lat="47.60215" lon="-2.90285">
        <ele>3</ele>
        <time>2023-12-09T10:00:16Z</time>
      </trkpt>
      <trkpt lat="47.60254" lon="-2.90277">
        <ele>4</ele>
        <time>2023-12-09T10:01:09Z</time>
      </trkpt>
      <trkpt lat="47.60273" lon="-2.90265">
        <ele>4</ele>
        <time>2023-12-09T10:01:37Z</time>
      </trkpt>
      <trkpt lat="47.60282" lon="-2.90264">
        <ele>4</ele>
        <time>2023-12-09T10:01:49Z</time>
      </trkpt>
      <trkpt lat="47.60288" lon="-2.90254">
        <ele>4</ele>
        <time>2023-12-09T10:02:01Z</time>
      </trkpt>
      <trkpt lat="47.60303" lon="-2.90243">
        <ele>4</ele>
        <time>2023-12-09T10:02:23Z</time>
      </trkpt>
      <trkpt lat="47.60331" lon="-2.90255">
        <ele>4</ele>
        <time>2023-12-09T10:03:02Z</time>
      </trkpt>
      <trkpt lat="47.60367" lon="-2.90278">
        <ele>5</ele>
        <time>2023-12-09T10:03:54Z</time>
      </trkpt>
      <trkpt lat="47.60382" lon="-2.90278">
        <ele>5</ele>
        <time>2023-12-09T10:04:14Z</time>
      </trkpt>
      <trkpt lat="47.60387" lon="-2.90273">
        <ele>6</ele>
        <time>2023-12-09T10:04:22Z</time>
      </trkpt>
      <trkpt lat="47.60393" lon="-2.9026">
        <ele>6</ele>
        <time>2023-12-09T10:04:36Z</time>
      </trkpt>
      <trkpt lat="47.60399" lon="-2.9023">
        <ele>6</ele>
        <time>2023-12-09T10:05:05Z</time>
      </trkpt>
      <trkpt lat="47.60414" lon="-2.90204">
        <ele>7</ele>
        <time>2023-12-09T10:05:35Z</time>
      </trkpt>
      <trkpt lat="47.60418" lon="-2.9019">
        <ele>7</ele>
        <time>2023-12-09T10:05:49Z</time>
      </trkpt>
      <trkpt lat="47.60434" lon="-2.90163">
        <ele>7</ele>
        <time>2023-12-09T10:06:21Z</time>
      </trkpt>
      <trkpt lat="47.60443" lon="-2.90141">
        <ele>7</ele>
        <time>2023-12-09T10:06:45Z</time>
      </trkpt>
      <trkpt lat="47.60443" lon="-2.90125">
        <ele>7</ele>
        <time>2023-12-09T10:06:59Z</time>
      </trkpt>
      <trkpt lat="47.60448" lon="-2.90129">
        <ele>7</ele>
        <time>2023-12-09T10:07:07Z</time>
      </trkpt>
      <trkpt lat="47.60455" lon="-2.90092">
        <ele>7</ele>
        <time>2023-12-09T10:07:41Z</time>
      </trkpt>
      <trkpt lat="47.60471" lon="-2.90065">
        <ele>7</ele>
        <time>2023-12-09T10:08:13Z</time>
      </trkpt>
      <trkpt lat="47.60483" lon="-2.90032">
        <ele>7</ele>
        <time>2023-12-09T10:08:47Z</time>
      </trkpt>
      <trkpt lat="47.605" lon="-2.89967">
        <ele>9</ele>
        <time>2023-12-09T10:09:50Z</time>
      </trkpt>
      <trkpt lat="47.60498" lon="-2.89954">
        <ele>10</ele>
        <time>2023-12-09T10:10:02Z</time>
      </trkpt>
      <trkpt lat="47.60502" lon="-2.8994">
        <ele>11</ele>
        <time>2023-12-09T10:10:16Z</time>
      </trkpt>
      <trkpt lat="47.60507" lon="-2.89899">
        <ele>14</ele>
        <time>2023-12-09T10:10:53Z</time>
      </trkpt>
      <trkpt lat="47.60504" lon="-2.89886">
        <ele>14</ele>
        <time>2023-12-09T10:11:05Z</time>
      </trkpt>
      <trkpt lat="47.60502" lon="-2.89813">
        <ele>17</ele>
        <time>2023-12-09T10:12:11Z</time>
      </trkpt>
      <trkpt lat="47.60506" lon="-2.89746">
        <ele>19</ele>
        <time>2023-12-09T10:13:12Z</time>
      </trkpt>
      <trkpt lat="47.60502" lon="-2.89676">
        <ele>19</ele>
        <time>2023-12-09T10:14:15Z</time>
      </trkpt>
      <trkpt lat="47.60504" lon="-2.89667">
        <ele>19</ele>
        <time>2023-12-09T10:14:23Z</time>
      </trkpt>
      <trkpt lat="47.60503" lon="-2.89621">
        <ele>19</ele>
        <time>2023-12-09T10:15:05Z</time>
      </trkpt>
      <trkpt lat="47.60507" lon="-2.89564">
        <ele>20</ele>
        <time>2023-12-09T10:15:56Z</time>
      </trkpt>
      <trkpt lat="47.60515" lon="-2.89505">
        <ele>19</ele>
        <time>2023-12-09T10:16:51Z</time>
      </trkpt>
      <trkpt lat="47.60528" lon="-2.89457">
        <ele>19</ele>
        <time>2023-12-09T10:17:37Z</time>
      </trkpt>
      <trkpt lat="47.6056" lon="-2.89375">
        <ele>18</ele>
        <time>2023-12-09T10:19:02Z</time>
      </trkpt>
      <trkpt lat="47.60559" lon="-2.89353">
        <ele>18</ele>
        <time>2023-12-09T10:19:22Z</time>
      </trkpt>
      <trkpt lat="47.60549" lon="-2.89327">
        <ele>19</ele>
        <time>2023-12-09T10:19:49Z</time>
      </trkpt>
      <trkpt lat="47.60513" lon="-2.8927">
        <ele>19</ele>
        <time>2023-12-09T10:20:59Z</time>
      </trkpt>
      <trkpt lat="47.60491" lon="-2.8924">
        <ele>19</ele>
        <time>2023-12-09T10:21:39Z</time>
      </trkpt>
      <trkpt lat="47.60469" lon="-2.89198">
        <ele>19</ele>
        <time>2023-12-09T10:22:27Z</time>
      </trkpt>
      <trkpt lat="47.6046" lon="-2.89192">
        <ele>19</ele>
        <time>2023-12-09T10:22:40Z</time>
      </trkpt>
      <trkpt lat="47.60451" lon="-2.89175">
        <ele>19</ele>
        <time>2023-12-09T10:23:00Z</time>
      </trkpt>
      <trkpt lat="47.60439" lon="-2.89162">
        <ele>18</ele>
        <time>2023-12-09T10:23:20Z</time>
      </trkpt>
      <trkpt lat="47.60434" lon="-2.89161">
        <ele>18</ele>
        <time>2023-12-09T10:23:26Z</time>
      </trkpt>
      <trkpt lat="47.60423" lon="-2.89147">
        <ele>17</ele>
        <time>2023-12-09T10:23:46Z</time>
      </trkpt>
      <trkpt lat="47.60413" lon="-2.89109">
        <ele>16</ele>
        <time>2023-12-09T10:24:22Z</time>
      </trkpt>
      <trkpt lat="47.60382" lon="-2.8905">
        <ele>13</ele>
        <time>2023-12-09T10:25:30Z</time>
      </trkpt>
      <trkpt lat="47.60378" lon="-2.89046">
        <ele>13</ele>
        <time>2023-12-09T10:25:36Z</time>
      </trkpt>
      <trkpt lat="47.60367" lon="-2.89043">
        <ele>12</ele>
        <time>2023-12-09T10:25:51Z</time>
      </trkpt>
      <trkpt lat="47.60365" lon="-2.89021">
        <ele>11</ele>
        <time>2023-12-09T10:26:11Z</time>
      </trkpt>
      <trkpt lat="47.60328" lon="-2.88905">
        <ele>7</ele>
        <time>2023-12-09T10:28:06Z</time>
      </trkpt>
      <trkpt lat="47.60325" lon="-2.88887">
        <ele>6</ele>
        <time>2023-12-09T10:28:23Z</time>
      </trkpt>
      <trkpt lat="47.6032" lon="-2.88879">
        <ele>6</ele>
        <time>2023-12-09T10:28:33Z</time>
      </trkpt>
      <trkpt lat="47.60323" lon="-2.88872">
        <ele>6</ele>
        <time>2023-12-09T10:28:40Z</time>
      </trkpt>
      <trkpt lat="47.60327" lon="-2.88871">
        <ele>6</ele>
        <time>2023-12-09T10:28:46Z</time>
      </trkpt>
      <trkpt lat="47.60339" lon="-2.88843">
        <ele>6</ele>
        <time>2023-12-09T10:29:16Z</time>
      </trkpt>
      <trkpt lat="47.60347" lon="-2.88836">
        <ele>7</ele>
        <time>2023-12-09T10:29:28Z</time>
      </trkpt>
      <trkpt lat="47.60351" lon="-2.88837">
        <ele>7</ele>
        <time>2023-12-09T10:29:34Z</time>
      </trkpt>
      <trkpt lat="47.60359" lon="-2.88816">
        <ele>6</ele>
        <time>2023-12-09T10:29:55Z</time>
      </trkpt>
      <trkpt lat="47.6038" lon="-2.88735">
        <ele>4</ele>
        <time>2023-12-09T10:31:13Z</time>
      </trkpt>
      <trkpt lat="47.60384" lon="-2.88732">
        <ele>4</ele>
        <time>2023-12-09T10:31:19Z</time>
      </trkpt>
      <trkpt lat="47.60389" lon="-2.88732">
        <ele>4</ele>
        <time>2023-12-09T10:31:26Z</time>
      </trkpt>
      <trkpt lat="47.60409" lon="-2.88742">
        <ele>5</ele>
        <time>2023-12-09T10:31:54Z</time>
      </trkpt>
      <trkpt lat="47.60426" lon="-2.88736">
        <ele>6</ele>
        <time>2023-12-09T10:32:17Z</time>
      </trkpt>
      <trkpt lat="47.60421" lon="-2.88642">
        <ele>4</ele>
        <time>2023-12-09T10:33:42Z</time>
      </trkpt>
      <trkpt lat="47.60424" lon="-2.88629">
        <ele>4</ele>
        <time>2023-12-09T10:33:55Z</time>
      </trkpt>
      <trkpt lat="47.60428" lon="-2.88624">
        <ele>5</ele>
        <time>2023-12-09T10:34:02Z</time>
      </trkpt>
      <trkpt lat="47.60423" lon="-2.8862">
        <ele>4</ele>
        <time>2023-12-09T10:34:09Z</time>
      </trkpt>
      <trkpt lat="47.60422" lon="-2.88612">
        <ele>4</ele>
        <time>2023-12-09T10:34:17Z</time>
      </trkpt>
      <trkpt lat="47.60415" lon="-2.88517">
        <ele>5</ele>
        <time>2023-12-09T10:35:43Z</time>
      </trkpt>
      <trkpt lat="47.60414" lon="-2.88493">
        <ele>6</ele>
        <time>2023-12-09T10:36:04Z</time>
      </trkpt>
      <trkpt lat="47.60417" lon="-2.88452">
        <ele>8</ele>
        <time>2023-12-09T10:36:41Z</time>
      </trkpt>
      <trkpt lat="47.60413" lon="-2.8842">
        <ele>9</ele>
        <time>2023-12-09T10:37:11Z</time>
      </trkpt>
      <trkpt lat="47.60415" lon="-2.88405">
        <ele>9</ele>
        <time>2023-12-09T10:37:24Z</time>
      </trkpt>
      <trkpt lat="47.60409" lon="-2.88361">
        <ele>10</ele>
        <time>2023-12-09T10:38:05Z</time>
      </trkpt>
      <trkpt lat="47.60406" lon="-2.88356">
        <ele>10</ele>
        <time>2023-12-09T10:38:11Z</time>
      </trkpt>
      <trkpt lat="47.60406" lon="-2.88319">
        <ele>12</ele>
        <time>2023-12-09T10:38:44Z</time>
      </trkpt>
      <trkpt lat="47.60397" lon="-2.88223">
        <ele>15</ele>
        <time>2023-12-09T10:40:11Z</time>
      </trkpt>
      <trkpt lat="47.604" lon="-2.88207">
        <ele>16</ele>
        <time>2023-12-09T10:40:26Z</time>
      </trkpt>
      <trkpt lat="47.60378" lon="-2.88096">
        <ele>17</ele>
        <time>2023-12-09T10:42:10Z</time>
      </trkpt>
      <trkpt lat="47.6037" lon="-2.88017">
        <ele>18</ele>
        <time>2023-12-09T10:43:22Z</time>
      </trkpt>
      <trkpt lat="47.60344" lon="-2.87902">
        <ele>19</ele>
        <time>2023-12-09T10:45:11Z</time>
      </trkpt>
      <trkpt lat="47.60335" lon="-2.87883">
        <ele>19</ele>
        <time>2023-12-09T10:45:32Z</time>
      </trkpt>
      <trkpt lat="47.60325" lon="-2.87842">
        <ele>19</ele>
        <time>2023-12-09T10:46:11Z</time>
      </trkpt>
      <trkpt lat="47.60302" lon="-2.87777">
        <ele>18</ele>
        <time>2023-12-09T10:47:17Z</time>
      </trkpt>
      <trkpt lat="47.60299" lon="-2.87771">
        <ele>18</ele>
        <time>2023-12-09T10:47:24Z</time>
      </trkpt>
      <trkpt lat="47.60276" lon="-2.87765">
        <ele>17</ele>
        <time>2023-12-09T10:47:55Z</time>
      </trkpt>
      <trkpt lat="47.60259" lon="-2.87769">
        <ele>16</ele>
        <time>2023-12-09T10:48:18Z</time>
      </trkpt>
      <trkpt lat="47.60222" lon="-2.87761">
        <ele>14</ele>
        <time>2023-12-09T10:49:08Z</time>
      </trkpt>
      <trkpt lat="47.60219" lon="-2.87756">
        <ele>14</ele>
        <time>2023-12-09T10:49:14Z</time>
      </trkpt>
      <trkpt lat="47.60207" lon="-2.87705">
        <ele>14</ele>
        <time>2023-12-09T10:50:03Z</time>
      </trkpt>
      <trkpt lat="47.60199" lon="-2.87639">
        <ele>14</ele>
        <time>2023-12-09T10:51:03Z</time>
      </trkpt>
      <trkpt lat="47.60192" lon="-2.87621">
        <ele>14</ele>
        <time>2023-12-09T10:51:22Z</time>
      </trkpt>
      <trkpt lat="47.60193" lon="-2.87605">
        <ele>14</ele>
        <time>2023-12-09T10:51:36Z</time>
      </trkpt>
      <trkpt lat="47.60185" lon="-2.87551">
        <ele>13</ele>
        <time>2023-12-09T10:52:26Z</time>
      </trkpt>
      <trkpt lat="47.60178" lon="-2.87532">
        <ele>13</ele>
        <time>2023-12-09T10:52:46Z</time>
      </trkpt>
      <trkpt lat="47.60175" lon="-2.87526">
        <ele>13</ele>
        <time>2023-12-09T10:52:52Z</time>
      </trkpt>
      <trkpt lat="47.60147" lon="-2.87502">
        <ele>11</ele>
        <time>2023-12-09T10:53:35Z</time>
      </trkpt>
      <trkpt lat="47.60134" lon="-2.87479">
        <ele>10</ele>
        <time>2023-12-09T10:54:02Z</time>
      </trkpt>
      <trkpt lat="47.60125" lon="-2.87471">
        <ele>10</ele>
        <time>2023-12-09T10:54:16Z</time>
      </trkpt>
      <trkpt lat="47.60123" lon="-2.87465">
        <ele>10</ele>
        <time>2023-12-09T10:54:22Z</time>
      </trkpt>
      <trkpt lat="47.60104" lon="-2.87449">
        <ele>9</ele>
        <time>2023-12-09T10:54:52Z</time>
      </trkpt>
      <trkpt lat="47.60096" lon="-2.87428">
        <ele>8</ele>
        <time>2023-12-09T10:55:13Z</time>
      </trkpt>
      <trkpt lat="47.60068" lon="-2.87378">
        <ele>9</ele>
        <time>2023-12-09T10:56:12Z</time>
      </trkpt>
      <trkpt lat="47.60063" lon="-2.87378">
        <ele>10</ele>
        <time>2023-12-09T10:56:18Z</time>
      </trkpt>
      <trkpt lat="47.60054" lon="-2.87385">
        <ele>10</ele>
        <time>2023-12-09T10:56:32Z</time>
      </trkpt>
      <trkpt lat="47.59998" lon="-2.87461">
        <ele>6</ele>
        <time>2023-12-09T10:58:13Z</time>
      </trkpt>
      <trkpt lat="47.5999" lon="-2.87486">
        <ele>5</ele>
        <time>2023-12-09T10:58:38Z</time>
      </trkpt>
      <trkpt lat="47.59985" lon="-2.87513">
        <ele>4</ele>
        <time>2023-12-09T10:59:03Z</time>
      </trkpt>
      <trkpt lat="47.59975" lon="-2.87522">
        <ele>4</ele>
        <time>2023-12-09T10:59:19Z</time>
      </trkpt>
      <trkpt lat="47.59947" lon="-2.87523">
        <ele>4</ele>
        <time>2023-12-09T10:59:56Z</time>
      </trkpt>
      <trkpt lat="47.59929" lon="-2.87512">
        <ele>4</ele>
        <time>2023-12-09T11:00:22Z</time>
      </trkpt>
      <trkpt lat="47.59916" lon="-2.87514">
        <ele>4</ele>
        <time>2023-12-09T11:00:40Z</time>
      </trkpt>
      <trkpt lat="47.59906" lon="-2.87524">
        <ele>3</ele>
        <time>2023-12-09T11:00:56Z</time>
      </trkpt>
      <trkpt lat="47.59901" lon="-2.8752">
        <ele>3</ele>
        <time>2023-12-09T11:01:03Z</time>
      </trkpt>
      <trkpt lat="47.599" lon="-2.87513">
        <ele>3</ele>
        <time>2023-12-09T11:01:10Z</time>
      </trkpt>
      <trkpt lat="47.59888" lon="-2.87489">
        <ele>4</ele>
        <time>2023-12-09T11:01:37Z</time>
      </trkpt>
      <trkpt lat="47.59877" lon="-2.8744">
        <ele>4</ele>
        <time>2023-12-09T11:02:23Z</time>
      </trkpt>
      <trkpt lat="47.59878" lon="-2.87431">
        <ele>4</ele>
        <time>2023-12-09T11:02:32Z</time>
      </trkpt>
      <trkpt lat="47.59874" lon="-2.87416">
        <ele>4</ele>
        <time>2023-12-09T11:02:46Z</time>
      </trkpt>
      <trkpt lat="47.59872" lon="-2.87376">
        <ele>5</ele>
        <time>2023-12-09T11:03:22Z</time>
      </trkpt>
      <trkpt lat="47.59879" lon="-2.87331">
        <ele>7</ele>
        <time>2023-12-09T11:04:04Z</time>
      </trkpt>
      <trkpt lat="47.59871" lon="-2.87259">
        <ele>6</ele>
        <time>2023-12-09T11:05:09Z</time>
      </trkpt>
      <trkpt lat="47.59862" lon="-2.87224">
        <ele>5</ele>
        <time>2023-12-09T11:05:43Z</time>
      </trkpt>
      <trkpt lat="47.59861" lon="-2.87202">
        <ele>5</ele>
        <time>2023-12-09T11:06:03Z</time>
      </trkpt>
      <trkpt lat="47.5987" lon="-2.8717">
        <ele>6</ele>
        <time>2023-12-09T11:06:34Z</time>
      </trkpt>
      <trkpt lat="47.5987" lon="-2.87156">
        <ele>6</ele>
        <time>2023-12-09T11:06:47Z</time>
      </trkpt>
      <trkpt lat="47.59878" lon="-2.87143">
        <ele>7</ele>
        <time>2023-12-09T11:07:03Z</time>
      </trkpt>
      <trkpt lat="47.59882" lon="-2.87126">
        <ele>8</ele>
        <time>2023-12-09T11:07:19Z</time>
      </trkpt>
      <trkpt lat="47.59888" lon="-2.87113">
        <ele>9</ele>
        <time>2023-12-09T11:07:33Z</time>
      </trkpt>
      <trkpt lat="47.59886" lon="-2.87066">
        <ele>9</ele>
        <time>2023-12-09T11:08:15Z</time>
      </trkpt>
      <trkpt lat="47.59894" lon="-2.87036">
        <ele>9</ele>
        <time>2023-12-09T11:08:44Z</time>
      </trkpt>
      <trkpt lat="47.59893" lon="-2.87028">
        <ele>9</ele>
        <time>2023-12-09T11:08:52Z</time>
      </trkpt>
      <trkpt lat="47.59896" lon="-2.87022">
        <ele>10</ele>
        <time>2023-12-09T11:08:58Z</time>
      </trkpt>
      <trkpt lat="47.5989" lon="-2.8698">
        <ele>9</ele>
        <time>2023-12-09T11:09:37Z</time>
      </trkpt>
      <trkpt lat="47.59877" lon="-2.86936">
        <ele>7</ele>
        <time>2023-12-09T11:10:20Z</time>
      </trkpt>
      <trkpt lat="47.5988" lon="-2.86919">
        <ele>7</ele>
        <time>2023-12-09T11:10:36Z</time>
      </trkpt>
      <trkpt lat="47.59878" lon="-2.86905">
        <ele>8</ele>
        <time>2023-12-09T11:10:49Z</time>
      </trkpt>
      <trkpt lat="47.59855" lon="-2.86825">
        <ele>7</ele>
        <time>2023-12-09T11:12:07Z</time>
      </trkpt>
      <trkpt lat="47.59841" lon="-2.86793">
        <ele>7</ele>
        <time>2023-12-09T11:12:41Z</time>
      </trkpt>
      <trkpt lat="47.59838" lon="-2.86779">
        <ele>7</ele>
        <time>2023-12-09T11:12:55Z</time>
      </trkpt>
      <trkpt lat="47.59819" lon="-2.86737">
        <ele>7</ele>
        <time>2023-12-09T11:13:40Z</time>
      </trkpt>
      <trkpt lat="47.59803" lon="-2.86681">
        <ele>8</ele>
        <time>2023-12-09T11:14:35Z</time>
      </trkpt>
      <trkpt lat="47.59763" lon="-2.8658">
        <ele>6</ele>
        <time>2023-12-09T11:16:20Z</time>
      </trkpt>
      <trkpt lat="47.59738" lon="-2.86532">
        <ele>6</ele>
        <time>2023-12-09T11:17:15Z</time>
      </trkpt>
      <trkpt lat="47.59729" lon="-2.86507">
        <ele>6</ele>
        <time>2023-12-09T11:17:40Z</time>
      </trkpt>
      <trkpt lat="47.59725" lon="-2.86494">
        <ele>6</ele>
        <time>2023-12-09T11:17:53Z</time>
      </trkpt>
      <trkpt lat="47.59719" lon="-2.86442">
        <ele>7</ele>
        <time>2023-12-09T11:18:41Z</time>
      </trkpt>
      <trkpt lat="47.59717" lon="-2.86406">
        <ele>8</ele>
        <time>2023-12-09T11:19:13Z</time>
      </trkpt>
      <trkpt lat="47.59722" lon="-2.86359">
        <ele>9</ele>
        <time>2023-12-09T11:19:56Z</time>
      </trkpt>
      <trkpt lat="47.5974" lon="-2.86314">
        <ele>12</ele>
        <time>2023-12-09T11:20:43Z</time>
      </trkpt>
      <trkpt lat="47.59773" lon="-2.86272">
        <ele>14</ele>
        <time>2023-12-09T11:21:41Z</time>
      </trkpt>
      <trkpt lat="47.59785" lon="-2.86268">
        <ele>14</ele>
        <time>2023-12-09T11:21:58Z</time>
      </trkpt>
      <trkpt lat="47.59802" lon="-2.86256">
        <ele>15</ele>
        <time>2023-12-09T11:22:23Z</time>
      </trkpt>
      <trkpt lat="47.59834" lon="-2.86249">
        <ele>17</ele>
        <time>2023-12-09T11:23:06Z</time>
      </trkpt>
      <trkpt lat="47.59851" lon="-2.8624">
        <ele>16</ele>
        <time>2023-12-09T11:23:30Z</time>
      </trkpt>
      <trkpt lat="47.59872" lon="-2.86243">
        <ele>15</ele>
        <time>2023-12-09T11:23:58Z</time>
      </trkpt>
      <trkpt lat="47.59905" lon="-2.86226">
        <ele>13</ele>
        <time>2023-12-09T11:24:45Z</time>
      </trkpt>
      <trkpt lat="47.59926" lon="-2.8622">
        <ele>13</ele>
        <time>2023-12-09T11:25:13Z</time>
      </trkpt>
      <trkpt lat="47.59957" lon="-2.86189">
        <ele>11</ele>
        <time>2023-12-09T11:26:03Z</time>
      </trkpt>
      <trkpt lat="47.59979" lon="-2.86154">
        <ele>10</ele>
        <time>2023-12-09T11:26:46Z</time>
      </trkpt>
      <trkpt lat="47.59993" lon="-2.86138">
        <ele>11</ele>
        <time>2023-12-09T11:27:10Z</time>
      </trkpt>
      <trkpt lat="47.60022" lon="-2.86121">
        <ele>10</ele>
        <time>2023-12-09T11:27:51Z</time>
      </trkpt>
      <trkpt lat="47.6005" lon="-2.86114">
        <ele>10</ele>
        <time>2023-12-09T11:28:29Z</time>
      </trkpt>
      <trkpt lat="47.60061" lon="-2.86115">
        <ele>10</ele>
        <time>2023-12-09T11:28:44Z</time>
      </trkpt>
      <trkpt lat="47.60075" lon="-2.86104">
        <ele>10</ele>
        <time>2023-12-09T11:29:05Z</time>
      </trkpt>
      <trkpt lat="47.60091" lon="-2.86103">
        <ele>10</ele>
        <time>2023-12-09T11:29:27Z</time>
      </trkpt>
      <trkpt lat="47.60091" lon="-2.8611">
        <ele>10</ele>
        <time>2023-12-09T11:29:33Z</time>
      </trkpt>
      <trkpt lat="47.60106" lon="-2.86117">
        <ele>10</ele>
        <time>2023-12-09T11:29:54Z</time>
      </trkpt>
      <trkpt lat="47.60115" lon="-2.86124">
        <ele>10</ele>
        <time>2023-12-09T11:30:07Z</time>
      </trkpt>
      <trkpt lat="47.60129" lon="-2.86144">
        <ele>9</ele>
        <time>2023-12-09T11:30:33Z</time>
      </trkpt>
      <trkpt lat="47.60132" lon="-2.86155">
        <ele>9</ele>
        <time>2023-12-09T11:30:44Z</time>
      </trkpt>
      <trkpt lat="47.60168" lon="-2.86197">
        <ele>8</ele>
        <time>2023-12-09T11:31:45Z</time>
      </trkpt>
      <trkpt lat="47.60181" lon="-2.86205">
        <ele>8</ele>
        <time>2023-12-09T11:32:04Z</time>
      </trkpt>
      <trkpt lat="47.60196" lon="-2.862">
        <ele>8</ele>
        <time>2023-12-09T11:32:24Z</time>
      </trkpt>
      <trkpt lat="47.60207" lon="-2.86183">
        <ele>8</ele>
        <time>2023-12-09T11:32:46Z</time>
      </trkpt>
      <trkpt lat="47.60236" lon="-2.86148">
        <ele>7</ele>
        <time>2023-12-09T11:33:36Z</time>
      </trkpt>
      <trkpt lat="47.60257" lon="-2.86093">
        <ele>5</ele>
        <time>2023-12-09T11:34:32Z</time>
      </trkpt>
      <trkpt lat="47.60254" lon="-2.8606">
        <ele>5</ele>
        <time>2023-12-09T11:35:02Z</time>
      </trkpt>
      <trkpt lat="47.60267" lon="-2.86032">
        <ele>4</ele>
        <time>2023-12-09T11:35:33Z</time>
      </trkpt>
      <trkpt lat="47.60267" lon="-2.86027">
        <ele>4</ele>
        <time>2023-12-09T11:35:37Z</time>
      </trkpt>
      <trkpt lat="47.60269" lon="-2.8604">
        <ele>4</ele>
        <time>2023-12-09T11:35:49Z</time>
      </trkpt>
      <trkpt lat="47.60285" lon="-2.86064">
        <ele>3</ele>
        <time>2023-12-09T11:36:20Z</time>
      </trkpt>
      <trkpt lat="47.60302" lon="-2.86076">
        <ele>2</ele>
        <time>2023-12-09T11:36:45Z</time>
      </trkpt>
      <trkpt lat="47.60315" lon="-2.86089">
        <ele>2</ele>
        <time>2023-12-09T11:37:06Z</time>
      </trkpt>
      <trkpt lat="47.60331" lon="-2.86095">
        <ele>2</ele>
        <time>2023-12-09T11:37:28Z</time>
      </trkpt>
      <trkpt lat="47.60354" lon="-2.86109">
        <ele>2</ele>
        <time>2023-12-09T11:38:01Z</time>
      </trkpt>
      <trkpt lat="47.60365" lon="-2.86124">
        <ele>2</ele>
        <time>2023-12-09T11:38:21Z</time>
      </trkpt>
      <trkpt lat="47.60372" lon="-2.86127">
        <ele>2</ele>
        <time>2023-12-09T11:38:31Z</time>
      </trkpt>
      <trkpt lat="47.60377" lon="-2.86134">
        <ele>2</ele>
        <time>2023-12-09T11:38:40Z</time>
      </trkpt>
      <trkpt lat="47.60377" lon="-2.86147">
        <ele>2</ele>
        <time>2023-12-09T11:38:52Z</time>
      </trkpt>
      <trkpt lat="47.60364" lon="-2.86169">
        <ele>3</ele>
        <time>2023-12-09T11:39:18Z</time>
      </trkpt>
      <trkpt lat="47.60362" lon="-2.86178">
        <ele>3</ele>
        <time>2023-12-09T11:39:26Z</time>
      </trkpt>
      <trkpt lat="47.6035" lon="-2.862">
        <ele>5</ele>
        <time>2023-12-09T11:39:52Z</time>
      </trkpt>
      <trkpt lat="47.60342" lon="-2.86226">
        <ele>6</ele>
        <time>2023-12-09T11:40:18Z</time>
      </trkpt>
      <trkpt lat="47.60325" lon="-2.86253">
        <ele>7</ele>
        <time>2023-12-09T11:40:51Z</time>
      </trkpt>
      <trkpt lat="47.60312" lon="-2.86284">
        <ele>8</ele>
        <time>2023-12-09T11:41:24Z</time>
      </trkpt>
      <trkpt lat="47.60306" lon="-2.86329">
        <ele>8</ele>
        <time>2023-12-09T11:42:05Z</time>
      </trkpt>
      <trkpt lat="47.60315" lon="-2.86378">
        <ele>9</ele>
        <time>2023-12-09T11:42:51Z</time>
      </trkpt>
      <trkpt lat="47.60329" lon="-2.86409">
        <ele>9</ele>
        <time>2023-12-09T11:43:24Z</time>
      </trkpt>
      <trkpt lat="47.60343" lon="-2.86429">
        <ele>9</ele>
        <time>2023-12-09T11:43:50Z</time>
      </trkpt>
      <trkpt lat="47.60355" lon="-2.86455">
        <ele>9</ele>
        <time>2023-12-09T11:44:19Z</time>
      </trkpt>
      <trkpt lat="47.60385" lon="-2.86506">
        <ele>8</ele>
        <time>2023-12-09T11:45:19Z</time>
      </trkpt>
      <trkpt lat="47.60406" lon="-2.86527">
        <ele>7</ele>
        <time>2023-12-09T11:45:53Z</time>
      </trkpt>
      <trkpt lat="47.60429" lon="-2.86564">
        <ele>8</ele>
        <time>2023-12-09T11:46:39Z</time>
      </trkpt>
      <trkpt lat="47.60446" lon="-2.86609">
        <ele>9</ele>
        <time>2023-12-09T11:47:25Z</time>
      </trkpt>
      <trkpt lat="47.6045" lon="-2.86614">
        <ele>9</ele>
        <time>2023-12-09T11:47:32Z</time>
      </trkpt>
      <trkpt lat="47.60451" lon="-2.86621">
        <ele>9</ele>
        <time>2023-12-09T11:47:38Z</time>
      </trkpt>
      <trkpt lat="47.60469" lon="-2.86655">
        <ele>9</ele>
        <time>2023-12-09T11:48:17Z</time>
      </trkpt>
      <trkpt lat="47.60479" lon="-2.86681">
        <ele>9</ele>
        <time>2023-12-09T11:48:44Z</time>
      </trkpt>
      <trkpt lat="47.60494" lon="-2.86708">
        <ele>9</ele>
        <time>2023-12-09T11:49:16Z</time>
      </trkpt>
      <trkpt lat="47.60502" lon="-2.86718">
        <ele>9</ele>
        <time>2023-12-09T11:49:30Z</time>
      </trkpt>
      <trkpt lat="47.6051" lon="-2.86736">
        <ele>9</ele>
        <time>2023-12-09T11:49:49Z</time>
      </trkpt>
      <trkpt lat="47.60511" lon="-2.8675">
        <ele>10</ele>
        <time>2023-12-09T11:50:02Z</time>
      </trkpt>
      <trkpt lat="47.60514" lon="-2.86757">
        <ele>10</ele>
        <time>2023-12-09T11:50:09Z</time>
      </trkpt>
      <trkpt lat="47.60568" lon="-2.86813">
        <ele>8</ele>
        <time>2023-12-09T11:51:37Z</time>
      </trkpt>
      <trkpt lat="47.60587" lon="-2.86823">
        <ele>7</ele>
        <time>2023-12-09T11:52:04Z</time>
      </trkpt>
      <trkpt lat="47.60605" lon="-2.86828">
        <ele>6</ele>
        <time>2023-12-09T11:52:28Z</time>
      </trkpt>
      <trkpt lat="47.60629" lon="-2.86829">
        <ele>5</ele>
        <time>2023-12-09T11:53:00Z</time>
      </trkpt>
      <trkpt lat="47.6064" lon="-2.86833">
        <ele>5</ele>
        <time>2023-12-09T11:53:16Z</time>
      </trkpt>
      <trkpt lat="47.60651" lon="-2.86844">
        <ele>4</ele>
        <time>2023-12-09T11:53:33Z</time>
      </trkpt>
      <trkpt lat="47.60663" lon="-2.86841">
        <ele>3</ele>
        <time>2023-12-09T11:53:50Z</time>
      </trkpt>
      <trkpt lat="47.60693" lon="-2.8684">
        <ele>4</ele>
        <time>2023-12-09T11:54:30Z</time>
      </trkpt>
      <trkpt lat="47.60702" lon="-2.86845">
        <ele>4</ele>
        <time>2023-12-09T11:54:42Z</time>
      </trkpt>
      <trkpt lat="47.60708" lon="-2.86845">
        <ele>4</ele>
        <time>2023-12-09T11:54:50Z</time>
      </trkpt>
      <trkpt lat="47.60713" lon="-2.86834">
        <ele>4</ele>
        <time>2023-12-09T11:55:02Z</time>
      </trkpt>
      <trkpt lat="47.60733" lon="-2.86833">
        <ele>4</ele>
        <time>2023-12-09T11:55:29Z</time>
      </trkpt>
      <trkpt lat="47.60795" lon="-2.86787">
        <ele>4</ele>
        <time>2023-12-09T11:57:02Z</time>
      </trkpt>
      <trkpt lat="47.60802" lon="-2.86789">
        <ele>5</ele>
        <time>2023-12-09T11:57:11Z</time>
      </trkpt>
      <trkpt lat="47.60821" lon="-2.86776">
        <ele>6</ele>
        <time>2023-12-09T11:57:39Z</time>
      </trkpt>
      <trkpt lat="47.60848" lon="-2.86746">
        <ele>7</ele>
        <time>2023-12-09T11:58:24Z</time>
      </trkpt>
      <trkpt lat="47.60868" lon="-2.86717">
        <ele>6</ele>
        <time>2023-12-09T11:59:01Z</time>
      </trkpt>
      <trkpt lat="47.60875" lon="-2.86704">
        <ele>6</ele>
        <time>2023-12-09T11:59:16Z</time>
      </trkpt>
      <trkpt lat="47.60877" lon="-2.86695">
        <ele>6</ele>
        <time>2023-12-09T11:59:25Z</time>
      </trkpt>
      <trkpt lat="47.60875" lon="-2.86681">
        <ele>6</ele>
        <time>2023-12-09T11:59:38Z</time>
      </trkpt>
      <trkpt lat="47.6088" lon="-2.8666">
        <ele>5</ele>
        <time>2023-12-09T11:59:58Z</time>
      </trkpt>
      <trkpt lat="47.60886" lon="-2.86648">
        <ele>5</ele>
        <time>2023-12-09T12:00:11Z</time>
      </trkpt>
      <trkpt lat="47.60906" lon="-2.86627">
        <ele>5</ele>
        <time>2023-12-09T12:00:44Z</time>
      </trkpt>
      <trkpt lat="47.60914" lon="-2.86609">
        <ele>4</ele>
        <time>2023-12-09T12:01:03Z</time>
      </trkpt>
      <trkpt lat="47.60928" lon="-2.86597">
        <ele>5</ele>
        <time>2023-12-09T12:01:25Z</time>
      </trkpt>
      <trkpt lat="47.60936" lon="-2.86594">
        <ele>5</ele>
        <time>2023-12-09T12:01:36Z</time>
      </trkpt>
      <trkpt lat="47.60941" lon="-2.86595">
        <ele>6</ele>
        <time>2023-12-09T12:01:43Z</time>
      </trkpt>
      <trkpt lat="47.60966" lon="-2.86579">
        <ele>7</ele>
        <time>2023-12-09T12:02:19Z</time>
      </trkpt>
      <trkpt lat="47.60997" lon="-2.86532">
        <ele>7</ele>
        <time>2023-12-09T12:03:18Z</time>
      </trkpt>
      <trkpt lat="47.61004" lon="-2.86525">
        <ele>7</ele>
        <time>2023-12-09T12:03:29Z</time>
      </trkpt>
      <trkpt lat="47.61027" lon="-2.86472">
        <ele>6</ele>
        <time>2023-12-09T12:04:26Z</time>
      </trkpt>
      <trkpt lat="47.61041" lon="-2.86448">
        <ele>7</ele>
        <time>2023-12-09T12:04:55Z</time>
      </trkpt>
      <trkpt lat="47.61056" lon="-2.86431">
        <ele>8</ele>
        <time>2023-12-09T12:05:20Z</time>
      </trkpt>
      <trkpt lat="47.6107" lon="-2.8641">
        <ele>8</ele>
        <time>2023-12-09T12:05:46Z</time>
      </trkpt>
      <trkpt lat="47.61079" lon="-2.86402">
        <ele>9</ele>
        <time>2023-12-09T12:06:00Z</time>
      </trkpt>
      <trkpt lat="47.61083" lon="-2.8639">
        <ele>9</ele>
        <time>2023-12-09T12:06:12Z</time>
      </trkpt>
      <trkpt lat="47.611" lon="-2.86375">
        <ele>9</ele>
        <time>2023-12-09T12:06:39Z</time>
      </trkpt>
      <trkpt lat="47.61112" lon="-2.86353">
        <ele>9</ele>
        <time>2023-12-09T12:07:04Z</time>
      </trkpt>
      <trkpt lat="47.61114" lon="-2.8634">
        <ele>8</ele>
        <time>2023-12-09T12:07:16Z</time>
      </trkpt>
      <trkpt lat="47.61122" lon="-2.86332">
        <ele>8</ele>
        <time>2023-12-09T12:07:29Z</time>
      </trkpt>
      <trkpt lat="47.61148" lon="-2.86281">
        <ele>7</ele>
        <time>2023-12-09T12:08:27Z</time>
      </trkpt>
      <trkpt lat="47.61158" lon="-2.86253">
        <ele>7</ele>
        <time>2023-12-09T12:08:55Z</time>
      </trkpt>
      <trkpt lat="47.61163" lon="-2.86231">
        <ele>6</ele>
        <time>2023-12-09T12:09:16Z</time>
      </trkpt>
      <trkpt lat="47.61166" lon="-2.86202">
        <ele>5</ele>
        <time>2023-12-09T12:09:42Z</time>
      </trkpt>
      <trkpt lat="47.61175" lon="-2.86166">
        <ele>4</ele>
        <time>2023-12-09T12:10:17Z</time>
      </trkpt>
      <trkpt lat="47.61183" lon="-2.86146">
        <ele>4</ele>
        <time>2023-12-09T12:10:38Z</time>
      </trkpt>
      <trkpt lat="47.61195" lon="-2.86132">
        <ele>4</ele>
        <time>2023-12-09T12:10:58Z</time>
      </trkpt>
      <trkpt lat="47.61204" lon="-2.86126">
        <ele>5</ele>
        <time>2023-12-09T12:11:11Z</time>
      </trkpt>
      <trkpt lat="47.6122" lon="-2.86104">
        <ele>5</ele>
        <time>2023-12-09T12:11:41Z</time>
      </trkpt>
      <trkpt lat="47.61229" lon="-2.86096">
        <ele>5</ele>
        <time>2023-12-09T12:11:55Z</time>
      </trkpt>
      <trkpt lat="47.61243" lon="-2.86076">
        <ele>5</ele>
        <time>2023-12-09T12:12:20Z</time>
      </trkpt>
      <trkpt lat="47.6127" lon="-2.86028">
        <ele>5</ele>
        <time>2023-12-09T12:13:17Z</time>
      </trkpt>
      <trkpt lat="47.61277" lon="-2.85994">
        <ele>4</ele>
        <time>2023-12-09T12:13:49Z</time>
      </trkpt>
      <trkpt lat="47.61318" lon="-2.85923">
        <ele>4</ele>
        <time>2023-12-09T12:15:13Z</time>
      </trkpt>
      <trkpt lat="47.61326" lon="-2.85913">
        <ele>5</ele>
        <time>2023-12-09T12:15:27Z</time>
      </trkpt>
      <trkpt lat="47.61351" lon="-2.85866">
        <ele>5</ele>
        <time>2023-12-09T12:16:21Z</time>
      </trkpt>
      <trkpt lat="47.61359" lon="-2.85815">
        <ele>4</ele>
        <time>2023-12-09T12:17:08Z</time>
      </trkpt>
      <trkpt lat="47.61368" lon="-2.8579">
        <ele>5</ele>
        <time>2023-12-09T12:17:33Z</time>
      </trkpt>
      <trkpt lat="47.61372" lon="-2.85786">
        <ele>5</ele>
        <time>2023-12-09T12:17:40Z</time>
      </trkpt>
      <trkpt lat="47.61387" lon="-2.85784">
        <ele>5</ele>
        <time>2023-12-09T12:18:00Z</time>
      </trkpt>
      <trkpt lat="47.61397" lon="-2.85779">
        <ele>6</ele>
        <time>2023-12-09T12:18:14Z</time>
      </trkpt>
      <trkpt lat="47.61411" lon="-2.85788">
        <ele>7</ele>
        <time>2023-12-09T12:18:34Z</time>
      </trkpt>
      <trkpt lat="47.61459" lon="-2.85684">
        <ele>3</ele>
        <time>2023-12-09T12:20:28Z</time>
      </trkpt>
      <trkpt lat="47.61474" lon="-2.85662">
        <ele>2</ele>
        <time>2023-12-09T12:20:56Z</time>
      </trkpt>
      <trkpt lat="47.61478" lon="-2.85665">
        <ele>2</ele>
        <time>2023-12-09T12:21:02Z</time>
      </trkpt>
      <trkpt lat="47.6149" lon="-2.85686">
        <ele>2</ele>
        <time>2023-12-09T12:21:26Z</time>
      </trkpt>
      <trkpt lat="47.61495" lon="-2.85706">
        <ele>3</ele>
        <time>2023-12-09T12:21:46Z</time>
      </trkpt>
      <trkpt lat="47.61527" lon="-2.85742">
        <ele>4</ele>
        <time>2023-12-09T12:22:39Z</time>
      </trkpt>
      <trkpt lat="47.61531" lon="-2.85756">
        <ele>4</ele>
        <time>2023-12-09T12:22:53Z</time>
      </trkpt>
      <trkpt lat="47.61543" lon="-2.85769">
        <ele>4</ele>
        <time>2023-12-09T12:23:13Z</time>
      </trkpt>
      <trkpt lat="47.61562" lon="-2.85771">
        <ele>4</ele>
        <time>2023-12-09T12:23:38Z</time>
      </trkpt>
      <trkpt lat="47.61576" lon="-2.85778">
        <ele>4</ele>
        <time>2023-12-09T12:23:58Z</time>
      </trkpt>
      <trkpt lat="47.61584" lon="-2.85787">
        <ele>4</ele>
        <time>2023-12-09T12:24:11Z</time>
      </trkpt>
      <trkpt lat="47.61598" lon="-2.85788">
        <ele>4</ele>
        <time>2023-12-09T12:24:30Z</time>
      </trkpt>
      <trkpt lat="47.61603" lon="-2.85791">
        <ele>4</ele>
        <time>2023-12-09T12:24:37Z</time>
      </trkpt>
      <trkpt lat="47.61611" lon="-2.85787">
        <ele>4</ele>
        <time>2023-12-09T12:24:48Z</time>
      </trkpt>
      <trkpt lat="47.61614" lon="-2.85781">
        <ele>4</ele>
        <time>2023-12-09T12:24:55Z</time>
      </trkpt>
      <trkpt lat="47.61626" lon="-2.85784">
        <ele>5</ele>
        <time>2023-12-09T12:25:11Z</time>
      </trkpt>
      <trkpt lat="47.61635" lon="-2.85795">
        <ele>5</ele>
        <time>2023-12-09T12:25:27Z</time>
      </trkpt>
      <trkpt lat="47.61649" lon="-2.858">
        <ele>5</ele>
        <time>2023-12-09T12:25:46Z</time>
      </trkpt>
      <trkpt lat="47.6165" lon="-2.85807">
        <ele>6</ele>
        <time>2023-12-09T12:25:53Z</time>
      </trkpt>
      <trkpt lat="47.6166" lon="-2.85823">
        <ele>6</ele>
        <time>2023-12-09T12:26:12Z</time>
      </trkpt>
      <trkpt lat="47.61654" lon="-2.8584">
        <ele>7</ele>
        <time>2023-12-09T12:26:30Z</time>
      </trkpt>
      <trkpt lat="47.61656" lon="-2.85849">
        <ele>7</ele>
        <time>2023-12-09T12:26:38Z</time>
      </trkpt>
      <trkpt lat="47.61673" lon="-2.85878">
        <ele>8</ele>
        <time>2023-12-09T12:27:13Z</time>
      </trkpt>
      <trkpt lat="47.61685" lon="-2.85911">
        <ele>10</ele>
        <time>2023-12-09T12:27:46Z</time>
      </trkpt>
      <trkpt lat="47.61691" lon="-2.85944">
        <ele>11</ele>
        <time>2023-12-09T12:28:17Z</time>
      </trkpt>
      <trkpt lat="47.61704" lon="-2.85969">
        <ele>13</ele>
        <time>2023-12-09T12:28:46Z</time>
      </trkpt>
      <trkpt lat="47.61716" lon="-2.85957">
        <ele>14</ele>
        <time>2023-12-09T12:29:05Z</time>
      </trkpt>
      <trkpt lat="47.61753" lon="-2.85934">
        <ele>14</ele>
        <time>2023-12-09T12:29:58Z</time>
      </trkpt>
      <trkpt lat="47.61759" lon="-2.85935">
        <ele>14</ele>
        <time>2023-12-09T12:30:06Z</time>
      </trkpt>
      <trkpt lat="47.61763" lon="-2.85931">
        <ele>13</ele>
        <time>2023-12-09T12:30:13Z</time>
      </trkpt>
      <trkpt lat="47.61768" lon="-2.8593">
        <ele>13</ele>
        <time>2023-12-09T12:30:20Z</time>
      </trkpt>
      <trkpt lat="47.61771" lon="-2.85924">
        <ele>12</ele>
        <time>2023-12-09T12:30:26Z</time>
      </trkpt>
      <trkpt lat="47.61795" lon="-2.85916">
        <ele>10</ele>
        <time>2023-12-09T12:30:59Z</time>
      </trkpt>
      <trkpt lat="47.61811" lon="-2.85895">
        <ele>8</ele>
        <time>2023-12-09T12:31:28Z</time>
      </trkpt>
      <trkpt lat="47.61828" lon="-2.85933">
        <ele>10</ele>
        <time>2023-12-09T12:32:09Z</time>
      </trkpt>
      <trkpt lat="47.61835" lon="-2.85943">
        <ele>10</ele>
        <time>2023-12-09T12:32:22Z</time>
      </trkpt>
      <trkpt lat="47.61836" lon="-2.85976">
        <ele>12</ele>
        <time>2023-12-09T12:32:51Z</time>
      </trkpt>
      <trkpt lat="47.61833" lon="-2.85989">
        <ele>13</ele>
        <time>2023-12-09T12:33:04Z</time>
      </trkpt>
      <trkpt lat="47.61837" lon="-2.86034">
        <ele>13</ele>
        <time>2023-12-09T12:33:45Z</time>
      </trkpt>
      <trkpt lat="47.61835" lon="-2.86055">
        <ele>13</ele>
        <time>2023-12-09T12:34:04Z</time>
      </trkpt>
      <trkpt lat="47.61837" lon="-2.86072">
        <ele>13</ele>
        <time>2023-12-09T12:34:19Z</time>
      </trkpt>
      <trkpt lat="47.61835" lon="-2.86097">
        <ele>12</ele>
        <time>2023-12-09T12:34:42Z</time>
      </trkpt>
      <trkpt lat="47.6183" lon="-2.86103">
        <ele>13</ele>
        <time>2023-12-09T12:34:50Z</time>
      </trkpt>
      <trkpt lat="47.61824" lon="-2.86105">
        <ele>13</ele>
        <time>2023-12-09T12:34:59Z</time>
      </trkpt>
      <trkpt lat="47.61822" lon="-2.86112">
        <ele>13</ele>
        <time>2023-12-09T12:35:05Z</time>
      </trkpt>
      <trkpt lat="47.61824" lon="-2.86128">
        <ele>12</ele>
        <time>2023-12-09T12:35:20Z</time>
      </trkpt>
      <trkpt lat="47.61821" lon="-2.86135">
        <ele>12</ele>
        <time>2023-12-09T12:35:28Z</time>
      </trkpt>
      <trkpt lat="47.6182" lon="-2.86152">
        <ele>11</ele>
        <time>2023-12-09T12:35:43Z</time>
      </trkpt>
      <trkpt lat="47.6183" lon="-2.86179">
        <ele>10</ele>
        <time>2023-12-09T12:36:11Z</time>
      </trkpt>
      <trkpt lat="47.61831" lon="-2.86194">
        <ele>9</ele>
        <time>2023-12-09T12:36:24Z</time>
      </trkpt>
      <trkpt lat="47.61816" lon="-2.86263">
        <ele>7</ele>
        <time>2023-12-09T12:37:29Z</time>
      </trkpt>
      <trkpt lat="47.61822" lon="-2.86296">
        <ele>6</ele>
        <time>2023-12-09T12:38:00Z</time>
      </trkpt>
      <trkpt lat="47.61837" lon="-2.86324">
        <ele>3</ele>
        <time>2023-12-09T12:38:32Z</time>
      </trkpt>
      <trkpt lat="47.61838" lon="-2.86338">
        <ele>3</ele>
        <time>2023-12-09T12:38:45Z</time>
      </trkpt>
      <trkpt lat="47.61835" lon="-2.86345">
        <ele>3</ele>
        <time>2023-12-09T12:38:52Z</time>
      </trkpt>
      <trkpt lat="47.61828" lon="-2.86352">
        <ele>3</ele>
        <time>2023-12-09T12:39:04Z</time>
      </trkpt>
      <trkpt lat="47.61812" lon="-2.86358">
        <ele>5</ele>
        <time>2023-12-09T12:39:26Z</time>
      </trkpt>
      <trkpt lat="47.61804" lon="-2.86357">
        <ele>6</ele>
        <time>2023-12-09T12:39:36Z</time>
      </trkpt>
      <trkpt lat="47.61797" lon="-2.86361">
        <ele>6</ele>
        <time>2023-12-09T12:39:46Z</time>
      </trkpt>
      <trkpt lat="47.61789" lon="-2.86376">
        <ele>7</ele>
        <time>2023-12-09T12:40:04Z</time>
      </trkpt>
      <trkpt lat="47.61787" lon="-2.86395">
        <ele>7</ele>
        <time>2023-12-09T12:40:21Z</time>
      </trkpt>
      <trkpt lat="47.61775" lon="-2.86415">
        <ele>8</ele>
        <time>2023-12-09T12:40:45Z</time>
      </trkpt>
      <trkpt lat="47.6177" lon="-2.86419">
        <ele>8</ele>
        <time>2023-12-09T12:40:53Z</time>
      </trkpt>
      <trkpt lat="47.6176" lon="-2.86418">
        <ele>10</ele>
        <time>2023-12-09T12:41:06Z</time>
      </trkpt>
      <trkpt lat="47.61758" lon="-2.86433">
        <ele>8</ele>
        <time>2023-12-09T12:41:20Z</time>
      </trkpt>
      <trkpt lat="47.61744" lon="-2.86464">
        <ele>6</ele>
        <time>2023-12-09T12:41:53Z</time>
      </trkpt>
      <trkpt lat="47.6174" lon="-2.86468">
        <ele>6</ele>
        <time>2023-12-09T12:42:00Z</time>
      </trkpt>
      <trkpt lat="47.61726" lon="-2.86474">
        <ele>7</ele>
        <time>2023-12-09T12:42:19Z</time>
      </trkpt>
      <trkpt lat="47.61717" lon="-2.86488">
        <ele>6</ele>
        <time>2023-12-09T12:42:37Z</time>
      </trkpt>
      <trkpt lat="47.61702" lon="-2.86518">
        <ele>7</ele>
        <time>2023-12-09T12:43:10Z</time>
      </trkpt>
      <trkpt lat="47.61699" lon="-2.86543">
        <ele>6</ele>
        <time>2023-12-09T12:43:33Z</time>
      </trkpt>
      <trkpt lat="47.61689" lon="-2.86552">
        <ele>6</ele>
        <time>2023-12-09T12:43:49Z</time>
      </trkpt>
      <trkpt lat="47.61672" lon="-2.86556">
        <ele>8</ele>
        <time>2023-12-09T12:44:12Z</time>
      </trkpt>
      <trkpt lat="47.61669" lon="-2.86566">
        <ele>7</ele>
        <time>2023-12-09T12:44:21Z</time>
      </trkpt>
      <trkpt lat="47.61668" lon="-2.86583">
        <ele>6</ele>
        <time>2023-12-09T12:44:37Z</time>
      </trkpt>
      <trkpt lat="47.61652" lon="-2.86621">
        <ele>6</ele>
        <time>2023-12-09T12:45:17Z</time>
      </trkpt>
      <trkpt lat="47.61646" lon="-2.86631">
        <ele>7</ele>
        <time>2023-12-09T12:45:29Z</time>
      </trkpt>
      <trkpt lat="47.61638" lon="-2.86634">
        <ele>7</ele>
        <time>2023-12-09T12:45:40Z</time>
      </trkpt>
      <trkpt lat="47.61637" lon="-2.86631">
        <ele>7</ele>
        <time>2023-12-09T12:45:43Z</time>
      </trkpt>
      <trkpt lat="47.61635" lon="-2.86641">
        <ele>7</ele>
        <time>2023-12-09T12:45:53Z</time>
      </trkpt>
      <trkpt lat="47.61636" lon="-2.86652">
        <ele>7</ele>
        <time>2023-12-09T12:46:03Z</time>
      </trkpt>
      <trkpt lat="47.61642" lon="-2.86681">
        <ele>6</ele>
        <time>2023-12-09T12:46:30Z</time>
      </trkpt>
      <trkpt lat="47.61653" lon="-2.86706">
        <ele>5</ele>
        <time>2023-12-09T12:46:57Z</time>
      </trkpt>
      <trkpt lat="47.61666" lon="-2.86753">
        <ele>5</ele>
        <time>2023-12-09T12:47:42Z</time>
      </trkpt>
      <trkpt lat="47.61677" lon="-2.86782">
        <ele>6</ele>
        <time>2023-12-09T12:48:12Z</time>
      </trkpt>
      <trkpt lat="47.617" lon="-2.868">
        <ele>8</ele>
        <time>2023-12-09T12:48:47Z</time>
      </trkpt>
      <trkpt lat="47.61706" lon="-2.86797">
        <ele>8</ele>
        <time>2023-12-09T12:48:55Z</time>
      </trkpt>
      <trkpt lat="47.61723" lon="-2.8677">
        <ele>8</ele>
        <time>2023-12-09T12:49:29Z</time>
      </trkpt>
      <trkpt lat="47.61741" lon="-2.86755">
        <ele>8</ele>
        <time>2023-12-09T12:49:56Z</time>
      </trkpt>
      <trkpt lat="47.61751" lon="-2.86751">
        <ele>8</ele>
        <time>2023-12-09T12:50:10Z</time>
      </trkpt>
      <trkpt lat="47.61769" lon="-2.86757">
        <ele>8</ele>
        <time>2023-12-09T12:50:35Z</time>
      </trkpt>
      <trkpt lat="47.61775" lon="-2.86773">
        <ele>10</ele>
        <time>2023-12-09T12:50:51Z</time>
      </trkpt>
      <trkpt lat="47.61799" lon="-2.86802">
        <ele>11</ele>
        <time>2023-12-09T12:51:32Z</time>
      </trkpt>
      <trkpt lat="47.61811" lon="-2.86811">
        <ele>12</ele>
        <time>2023-12-09T12:51:50Z</time>
      </trkpt>
      <trkpt lat="47.61825" lon="-2.86834">
        <ele>13</ele>
        <time>2023-12-09T12:52:18Z</time>
      </trkpt>
      <trkpt lat="47.61832" lon="-2.86834">
        <ele>13</ele>
        <time>2023-12-09T12:52:28Z</time>
      </trkpt>
      <trkpt lat="47.61846" lon="-2.86847">
        <ele>14</ele>
        <time>2023-12-09T12:52:50Z</time>
      </trkpt>
      <trkpt lat="47.61855" lon="-2.8686">
        <ele>14</ele>
        <time>2023-12-09T12:53:06Z</time>
      </trkpt>
      <trkpt lat="47.61867" lon="-2.86893">
        <ele>15</ele>
        <time>2023-12-09T12:53:40Z</time>
      </trkpt>
      <trkpt lat="47.61867" lon="-2.86911">
        <ele>16</ele>
        <time>2023-12-09T12:53:56Z</time>
      </trkpt>
      <trkpt lat="47.61875" lon="-2.86939">
        <ele>16</ele>
        <time>2023-12-09T12:54:24Z</time>
      </trkpt>
      <trkpt lat="47.61887" lon="-2.86955">
        <ele>15</ele>
        <time>2023-12-09T12:54:45Z</time>
      </trkpt>
      <trkpt lat="47.61889" lon="-2.86973">
        <ele>15</ele>
        <time>2023-12-09T12:55:02Z</time>
      </trkpt>
      <trkpt lat="47.61897" lon="-2.86977">
        <ele>15</ele>
        <time>2023-12-09T12:55:13Z</time>
      </trkpt>
      <trkpt lat="47.61904" lon="-2.86987">
        <ele>15</ele>
        <time>2023-12-09T12:55:26Z</time>
      </trkpt>
      <trkpt lat="47.61913" lon="-2.86993">
        <ele>14</ele>
        <time>2023-12-09T12:55:39Z</time>
      </trkpt>
      <trkpt lat="47.6192" lon="-2.87003">
        <ele>14</ele>
        <time>2023-12-09T12:55:52Z</time>
      </trkpt>
      <trkpt lat="47.61932" lon="-2.87014">
        <ele>13</ele>
        <time>2023-12-09T12:56:11Z</time>
      </trkpt>
      <trkpt lat="47.61946" lon="-2.8702">
        <ele>12</ele>
        <time>2023-12-09T12:56:30Z</time>
      </trkpt>
      <trkpt lat="47.61958" lon="-2.87041">
        <ele>11</ele>
        <time>2023-12-09T12:56:55Z</time>
      </trkpt>
      <trkpt lat="47.61962" lon="-2.87043">
        <ele>11</ele>
        <time>2023-12-09T12:57:01Z</time>
      </trkpt>
      <trkpt lat="47.61975" lon="-2.87041">
        <ele>10</ele>
        <time>2023-12-09T12:57:18Z</time>
      </trkpt>
      <trkpt lat="47.62011" lon="-2.87045">
        <ele>8</ele>
        <time>2023-12-09T12:58:06Z</time>
      </trkpt>
      <trkpt lat="47.62022" lon="-2.87049">
        <ele>7</ele>
        <time>2023-12-09T12:58:21Z</time>
      </trkpt>
      <trkpt lat="47.62034" lon="-2.87036">
        <ele>6</ele>
        <time>2023-12-09T12:58:41Z</time>
      </trkpt>
      <trkpt lat="47.62046" lon="-2.87034">
        <ele>6</ele>
        <time>2023-12-09T12:58:57Z</time>
      </trkpt>
      <trkpt lat="47.62052" lon="-2.87022">
        <ele>5</ele>
        <time>2023-12-09T12:59:11Z</time>
      </trkpt>
      <trkpt lat="47.62061" lon="-2.87015">
        <ele>5</ele>
        <time>2023-12-09T12:59:24Z</time>
      </trkpt>
      <trkpt lat="47.62076" lon="-2.87011">
        <ele>4</ele>
        <time>2023-12-09T12:59:45Z</time>
      </trkpt>
      <trkpt lat="47.62087" lon="-2.86997">
        <ele>4</ele>
        <time>2023-12-09T13:00:04Z</time>
      </trkpt>
      <trkpt lat="47.6209" lon="-2.86983">
        <ele>5</ele>
        <time>2023-12-09T13:00:17Z</time>
      </trkpt>
      <trkpt lat="47.62086" lon="-2.86938">
        <ele>8</ele>
        <time>2023-12-09T13:00:58Z</time>
      </trkpt>
      <trkpt lat="47.62089" lon="-2.86927">
        <ele>9</ele>
        <time>2023-12-09T13:01:09Z</time>
      </trkpt>
      <trkpt lat="47.62105" lon="-2.8691">
        <ele>9</ele>
        <time>2023-12-09T13:01:35Z</time>
      </trkpt>
      <trkpt lat="47.62113" lon="-2.86891">
        <ele>10</ele>
        <time>2023-12-09T13:01:55Z</time>
      </trkpt>
      <trkpt lat="47.62133" lon="-2.86869">
        <ele>10</ele>
        <time>2023-12-09T13:02:28Z</time>
      </trkpt>
      <trkpt lat="47.62165" lon="-2.86863">
        <ele>7</ele>
        <time>2023-12-09T13:03:11Z</time>
      </trkpt>
    </trkseg>
  </trk>
</gpx>